ROLR1 YMES-YBCS
Flight info
| Callsign | ROLR1 |
|---|---|
| Flight time | N/A |
| Altitude | 10000 |
| Route | YMES/04 N0271F220 AY3 AY DCT KADUV Q76 PORIV/N0271F240 Q76 NONUM NONU5A YBCS/15 |
| Aircraft | PC21/L-L/S |
Departure
| Time | 2026-04-27 12:58 |
|---|---|
| Airport | RAAF Base East Sale (YMES) |
Arrival
| Time | N/A |
|---|---|
| Airport | Cairns International Airport (YBCS) |
| Time | Latitude | Longitude | Altitude | Speed | Heading |
|---|---|---|---|---|---|
| 2026-04-27 12:50 | -38.09917 | 147.13731 | 26 ft | 0 kts | 188° |
| 2026-04-27 12:53 | -38.09934 | 147.13733 | 27 ft | 1 kts | 143° |
| 2026-04-27 12:53 | -38.09951 | 147.13824 | 26 ft | 14 kts | 98° |
| 2026-04-27 12:53 | -38.09942 | 147.13885 | 27 ft | 8 kts | 20° |
| 2026-04-27 12:54 | -38.09911 | 147.13906 | 28 ft | 2 kts | 91° |
| 2026-04-27 12:54 | -38.09920 | 147.14010 | 27 ft | 1 kts | 74° |
| 2026-04-27 12:54 | -38.09864 | 147.14036 | 28 ft | 13 kts | 9° |
| 2026-04-27 12:54 | -38.09850 | 147.14067 | 28 ft | 16 kts | 108° |
| 2026-04-27 12:55 | -38.09873 | 147.14247 | 24 ft | 21 kts | 98° |
| 2026-04-27 12:55 | -38.09925 | 147.14389 | 23 ft | 16 kts | 159° |
| 2026-04-27 12:55 | -38.10051 | 147.14367 | 24 ft | 22 kts | 219° |
| 2026-04-27 12:55 | -38.10136 | 147.14226 | 25 ft | 19 kts | 233° |
| 2026-04-27 12:56 | -38.10233 | 147.14056 | 25 ft | 28 kts | 234° |
| 2026-04-27 12:56 | -38.10313 | 147.13916 | 23 ft | 11 kts | 233° |
| 2026-04-27 12:56 | -38.10405 | 147.13756 | 23 ft | 19 kts | 233° |
| 2026-04-27 12:56 | -38.10477 | 147.13726 | 21 ft | 11 kts | 147° |
| 2026-04-27 12:57 | -38.10553 | 147.13832 | 17 ft | 18 kts | 108° |
| 2026-04-27 12:57 | -38.10539 | 147.13966 | 17 ft | 10 kts | 57° |
| 2026-04-27 12:57 | -38.10509 | 147.14019 | 17 ft | 33 kts | 54° |
| 2026-04-27 12:57 | -38.10202 | 147.14549 | 23 ft | 111 kts | 54° |
| 2026-04-27 12:58 | -38.09652 | 147.15507 | 45 ft | 154 kts | 53° |
| 2026-04-27 12:58 | -38.08849 | 147.16440 | 430 ft | 173 kts | 16° |
| 2026-04-27 12:58 | -38.07536 | 147.16293 | 980 ft | 211 kts | 345° |
| 2026-04-27 12:58 | -38.06011 | 147.15772 | 1513 ft | 240 kts | 347° |
| 2026-04-27 12:59 | -38.04321 | 147.15304 | 2062 ft | 257 kts | 350° |
| 2026-04-27 12:59 | -38.02511 | 147.14903 | 2592 ft | 271 kts | 351° |
| 2026-04-27 12:59 | -38.00612 | 147.14523 | 3111 ft | 282 kts | 351° |
| 2026-04-27 12:59 | -37.98656 | 147.14146 | 3623 ft | 285 kts | 351° |
| 2026-04-27 13:00 | -37.96685 | 147.13839 | 4124 ft | 287 kts | 356° |
| 2026-04-27 13:00 | -37.94726 | 147.13728 | 4871 ft | 280 kts | 356° |
| 2026-04-27 13:00 | -37.92838 | 147.13560 | 5992 ft | 265 kts | 355° |
| 2026-04-27 13:00 | -37.91047 | 147.13411 | 7102 ft | 250 kts | 355° |
| 2026-04-27 13:01 | -37.89338 | 147.13278 | 8196 ft | 243 kts | 354° |
| 2026-04-27 13:01 | -37.87680 | 147.13139 | 9324 ft | 234 kts | 354° |
| 2026-04-27 13:01 | -37.86053 | 147.13005 | 10183 ft | 239 kts | 354° |
| 2026-04-27 13:01 | -37.84319 | 147.12862 | 10559 ft | 261 kts | 354° |
| 2026-04-27 13:02 | -37.82428 | 147.12710 | 10738 ft | 282 kts | 355° |
| 2026-04-27 13:02 | -37.80405 | 147.12548 | 10824 ft | 300 kts | 355° |
| 2026-04-27 13:02 | -37.78272 | 147.12373 | 10861 ft | 315 kts | 355° |
| 2026-04-27 13:02 | -37.76075 | 147.12197 | 10882 ft | 323 kts | 355° |
| 2026-04-27 13:03 | -37.73823 | 147.12017 | 10885 ft | 326 kts | 355° |
| 2026-04-27 13:03 | -37.71556 | 147.11827 | 10887 ft | 327 kts | 355° |
| 2026-04-27 13:03 | -37.69288 | 147.11646 | 10890 ft | 327 kts | 355° |
| 2026-04-27 13:03 | -37.67012 | 147.11463 | 10890 ft | 327 kts | 355° |
| 2026-04-27 13:04 | -37.64741 | 147.11278 | 10889 ft | 328 kts | 355° |
| 2026-04-27 13:04 | -37.62464 | 147.11095 | 10883 ft | 328 kts | 355° |
| 2026-04-27 13:04 | -37.60192 | 147.10912 | 10890 ft | 328 kts | 355° |
| 2026-04-27 13:04 | -37.57914 | 147.10728 | 10894 ft | 328 kts | 355° |
| 2026-04-27 13:05 | -37.55641 | 147.10544 | 10894 ft | 328 kts | 355° |
| 2026-04-27 13:05 | -37.53393 | 147.10363 | 10893 ft | 327 kts | 355° |
| 2026-04-27 13:05 | -37.51163 | 147.10184 | 10892 ft | 319 kts | 355° |
| 2026-04-27 13:05 | -37.48942 | 147.10004 | 10888 ft | 321 kts | 355° |
| 2026-04-27 13:06 | -37.46709 | 147.09825 | 10889 ft | 322 kts | 355° |
| 2026-04-27 13:06 | -37.44468 | 147.09646 | 10901 ft | 322 kts | 355° |
| 2026-04-27 13:06 | -37.42232 | 147.09465 | 10899 ft | 322 kts | 355° |
| 2026-04-27 13:06 | -37.39992 | 147.09286 | 10904 ft | 322 kts | 355° |
| 2026-04-27 13:07 | -37.37755 | 147.09107 | 10894 ft | 322 kts | 355° |
| 2026-04-27 13:07 | -37.35545 | 147.08929 | 10898 ft | 322 kts | 354° |
| 2026-04-27 13:07 | -37.33309 | 147.08749 | 10907 ft | 322 kts | 355° |
| 2026-04-27 13:07 | -37.31068 | 147.08571 | 10905 ft | 322 kts | 354° |
| 2026-04-27 13:08 | -37.28832 | 147.08391 | 10908 ft | 322 kts | 355° |
| 2026-04-27 13:08 | -37.26592 | 147.08212 | 10915 ft | 322 kts | 354° |
| 2026-04-27 13:08 | -37.24356 | 147.08033 | 10917 ft | 322 kts | 354° |
| 2026-04-27 13:08 | -37.22115 | 147.07854 | 10918 ft | 322 kts | 354° |
| 2026-04-27 13:09 | -37.19878 | 147.07675 | 10918 ft | 323 kts | 354° |
| 2026-04-27 13:09 | -37.17638 | 147.07497 | 10922 ft | 322 kts | 354° |
| 2026-04-27 13:09 | -37.15403 | 147.07318 | 10930 ft | 322 kts | 354° |
| 2026-04-27 13:09 | -37.13192 | 147.07142 | 10931 ft | 322 kts | 354° |
| 2026-04-27 13:10 | -37.10958 | 147.06964 | 10927 ft | 322 kts | 354° |
| 2026-04-27 13:10 | -37.08717 | 147.06785 | 10917 ft | 322 kts | 354° |
| 2026-04-27 13:10 | -37.06482 | 147.06608 | 10915 ft | 322 kts | 354° |
| 2026-04-27 13:10 | -37.04243 | 147.06430 | 10919 ft | 322 kts | 354° |
| 2026-04-27 13:11 | -37.02008 | 147.06252 | 10915 ft | 322 kts | 354° |
| 2026-04-27 13:11 | -36.99770 | 147.06075 | 10910 ft | 322 kts | 354° |
| 2026-04-27 13:11 | -36.97566 | 147.05899 | 10896 ft | 310 kts | 354° |
| 2026-04-27 13:11 | -36.96205 | 147.05794 | 10877 ft | 281 kts | 354° |
| 2026-04-27 13:12 | -36.93807 | 147.05603 | 10870 ft | 247 kts | 353° |
| 2026-04-27 13:12 | -36.92069 | 147.05459 | 10897 ft | 246 kts | 354° |
| 2026-04-27 13:12 | -36.90961 | 147.05377 | 10895 ft | 228 kts | 354° |
| 2026-04-27 13:12 | -36.89319 | 147.05244 | 10899 ft | 245 kts | 354° |
| 2026-04-27 13:13 | -36.87123 | 147.05072 | 10893 ft | 233 kts | 354° |
| 2026-04-27 13:13 | -36.86051 | 147.04988 | 10889 ft | 233 kts | 354° |
| 2026-04-27 13:13 | -36.84434 | 147.04858 | 10888 ft | 233 kts | 354° |
| 2026-04-27 13:13 | -36.82272 | 147.04688 | 10878 ft | 232 kts | 354° |
| 2026-04-27 13:14 | -36.81206 | 147.04604 | 10879 ft | 232 kts | 354° |
| 2026-04-27 13:14 | -36.79594 | 147.04477 | 10887 ft | 232 kts | 354° |
| 2026-04-27 13:14 | -36.77466 | 147.04307 | 10899 ft | 232 kts | 354° |
| 2026-04-27 13:14 | -36.76397 | 147.04224 | 10905 ft | 232 kts | 354° |
| 2026-04-27 13:15 | -36.74788 | 147.04097 | 10910 ft | 232 kts | 354° |
| 2026-04-27 13:15 | -36.73178 | 147.03970 | 10900 ft | 231 kts | 354° |
| 2026-04-27 13:15 | -36.71575 | 147.03843 | 10892 ft | 231 kts | 354° |
| 2026-04-27 13:15 | -36.69968 | 147.03717 | 10894 ft | 231 kts | 354° |
| 2026-04-27 13:16 | -36.68362 | 147.03590 | 10899 ft | 232 kts | 354° |
| 2026-04-27 13:16 | -36.66752 | 147.03464 | 10900 ft | 232 kts | 354° |
| 2026-04-27 13:16 | -36.64626 | 147.03297 | 10895 ft | 231 kts | 354° |
| 2026-04-27 13:16 | -36.63539 | 147.03211 | 10892 ft | 231 kts | 354° |
| 2026-04-27 13:17 | -36.61930 | 147.03083 | 10892 ft | 232 kts | 354° |
| 2026-04-27 13:17 | -36.60345 | 147.02959 | 10894 ft | 232 kts | 354° |
| 2026-04-27 13:17 | -36.58739 | 147.02833 | 10874 ft | 231 kts | 354° |
| 2026-04-27 13:17 | -36.57133 | 147.02708 | 10871 ft | 231 kts | 354° |
| 2026-04-27 13:18 | -36.55533 | 147.02581 | 10877 ft | 231 kts | 354° |
| 2026-04-27 13:18 | -36.53927 | 147.02455 | 10874 ft | 231 kts | 354° |
| 2026-04-27 13:18 | -36.52322 | 147.02329 | 10876 ft | 231 kts | 354° |
| 2026-04-27 13:18 | -36.50714 | 147.02203 | 10873 ft | 231 kts | 354° |
| 2026-04-27 13:19 | -36.49110 | 147.02078 | 10872 ft | 231 kts | 354° |
| 2026-04-27 13:19 | -36.47502 | 147.01952 | 10871 ft | 231 kts | 354° |
| 2026-04-27 13:19 | -36.45899 | 147.01826 | 10873 ft | 231 kts | 354° |
| 2026-04-27 13:19 | -36.44313 | 147.01702 | 10873 ft | 231 kts | 354° |
| 2026-04-27 13:20 | -36.42708 | 147.01577 | 10865 ft | 231 kts | 354° |
| 2026-04-27 13:20 | -36.41098 | 147.01450 | 10867 ft | 231 kts | 354° |
| 2026-04-27 13:20 | -36.39495 | 147.01325 | 10860 ft | 231 kts | 354° |
| 2026-04-27 13:20 | -36.37890 | 147.01199 | 10865 ft | 231 kts | 354° |
| 2026-04-27 13:21 | -36.36286 | 147.01074 | 10859 ft | 231 kts | 354° |
| 2026-04-27 13:21 | -36.34679 | 147.00949 | 10859 ft | 231 kts | 354° |
| 2026-04-27 13:21 | -36.33075 | 147.00824 | 10860 ft | 231 kts | 354° |
| 2026-04-27 13:21 | -36.31466 | 147.00698 | 10864 ft | 232 kts | 354° |
| 2026-04-27 13:22 | -36.29881 | 147.00574 | 10856 ft | 231 kts | 354° |
| 2026-04-27 13:22 | -36.28273 | 147.00449 | 10856 ft | 231 kts | 354° |
| 2026-04-27 13:22 | -36.26669 | 147.00324 | 10855 ft | 231 kts | 354° |
| 2026-04-27 13:22 | -36.25062 | 147.00199 | 10853 ft | 231 kts | 354° |
| 2026-04-27 13:23 | -36.23460 | 147.00074 | 10857 ft | 231 kts | 354° |
| 2026-04-27 13:23 | -36.21854 | 146.99948 | 10854 ft | 231 kts | 354° |
| 2026-04-27 13:23 | -36.20250 | 146.99824 | 10856 ft | 231 kts | 354° |
| 2026-04-27 13:23 | -36.18641 | 146.99699 | 10856 ft | 231 kts | 354° |
| 2026-04-27 13:24 | -36.17035 | 146.99574 | 10857 ft | 232 kts | 354° |
| 2026-04-27 13:24 | -36.15447 | 146.99450 | 10857 ft | 231 kts | 354° |
| 2026-04-27 13:24 | -36.13843 | 146.99326 | 10858 ft | 231 kts | 354° |
| 2026-04-27 13:24 | -36.12237 | 146.99202 | 10851 ft | 231 kts | 354° |
| 2026-04-27 13:25 | -36.10633 | 146.99076 | 10852 ft | 231 kts | 354° |
| 2026-04-27 13:25 | -36.09025 | 146.98952 | 10851 ft | 231 kts | 354° |
| 2026-04-27 13:25 | -36.07419 | 146.98828 | 10851 ft | 231 kts | 354° |
| 2026-04-27 13:25 | -36.05812 | 146.98703 | 10849 ft | 231 kts | 354° |
| 2026-04-27 13:26 | -36.04206 | 146.98578 | 10851 ft | 231 kts | 354° |
| 2026-04-27 13:26 | -36.02603 | 146.98454 | 10850 ft | 231 kts | 354° |
| 2026-04-27 13:26 | -36.00997 | 146.98330 | 10849 ft | 231 kts | 354° |
| 2026-04-27 13:26 | -35.99415 | 146.98207 | 10847 ft | 231 kts | 354° |
| 2026-04-27 13:27 | -35.97812 | 146.98084 | 10853 ft | 231 kts | 354° |
| 2026-04-27 13:27 | -35.96206 | 146.97959 | 10852 ft | 231 kts | 354° |
| 2026-04-27 13:27 | -35.94600 | 146.97835 | 10852 ft | 231 kts | 354° |
| 2026-04-27 13:27 | -35.92997 | 146.97711 | 10852 ft | 231 kts | 354° |
| 2026-04-27 13:28 | -35.91393 | 146.97588 | 10852 ft | 231 kts | 354° |
| 2026-04-27 13:28 | -35.89785 | 146.97463 | 10851 ft | 231 kts | 354° |
| 2026-04-27 13:28 | -35.88181 | 146.97339 | 10849 ft | 231 kts | 354° |
| 2026-04-27 13:28 | -35.86575 | 146.97215 | 10853 ft | 231 kts | 354° |
| 2026-04-27 13:29 | -35.84990 | 146.97093 | 10852 ft | 231 kts | 354° |
| 2026-04-27 13:29 | -35.83387 | 146.96970 | 10851 ft | 231 kts | 354° |
| 2026-04-27 13:29 | -35.81781 | 146.96846 | 10852 ft | 231 kts | 354° |
| 2026-04-27 13:29 | -35.80178 | 146.96723 | 10850 ft | 231 kts | 354° |
| 2026-04-27 13:30 | -35.78589 | 146.96601 | 10848 ft | 231 kts | 354° |
| 2026-04-27 13:30 | -35.76985 | 146.96476 | 10846 ft | 231 kts | 354° |
| 2026-04-27 13:30 | -35.75381 | 146.96353 | 10846 ft | 231 kts | 354° |
| 2026-04-27 13:30 | -35.73781 | 146.96231 | 10846 ft | 231 kts | 354° |
| 2026-04-27 13:31 | -35.72176 | 146.96107 | 10845 ft | 231 kts | 354° |
| 2026-04-27 13:31 | -35.70574 | 146.95984 | 10845 ft | 231 kts | 354° |
| 2026-04-27 13:31 | -35.68989 | 146.95863 | 10843 ft | 231 kts | 354° |
| 2026-04-27 13:31 | -35.67387 | 146.95739 | 10845 ft | 231 kts | 354° |
| 2026-04-27 13:32 | -35.65781 | 146.95617 | 10850 ft | 231 kts | 354° |
| 2026-04-27 13:32 | -35.64179 | 146.95493 | 10846 ft | 231 kts | 354° |
| 2026-04-27 13:32 | -35.62576 | 146.95370 | 10845 ft | 231 kts | 354° |
| 2026-04-27 13:32 | -35.60970 | 146.95247 | 10842 ft | 231 kts | 354° |
| 2026-04-27 13:33 | -35.59365 | 146.95124 | 10845 ft | 231 kts | 354° |
| 2026-04-27 13:33 | -35.57763 | 146.95002 | 10846 ft | 231 kts | 354° |
| 2026-04-27 13:33 | -35.56158 | 146.94878 | 10848 ft | 231 kts | 354° |
| 2026-04-27 13:33 | -35.54577 | 146.94758 | 10846 ft | 231 kts | 354° |
| 2026-04-27 13:34 | -35.52971 | 146.94635 | 10844 ft | 231 kts | 354° |
| 2026-04-27 13:34 | -35.51369 | 146.94512 | 10845 ft | 231 kts | 354° |
| 2026-04-27 13:34 | -35.49765 | 146.94389 | 10846 ft | 231 kts | 354° |
| 2026-04-27 13:34 | -35.48163 | 146.94267 | 10844 ft | 231 kts | 354° |
| 2026-04-27 13:35 | -35.46558 | 146.94144 | 10844 ft | 231 kts | 354° |
| 2026-04-27 13:35 | -35.44956 | 146.94023 | 10839 ft | 231 kts | 354° |
| 2026-04-27 13:35 | -35.43349 | 146.93900 | 10838 ft | 231 kts | 354° |
| 2026-04-27 13:35 | -35.41747 | 146.93777 | 10841 ft | 231 kts | 354° |
| 2026-04-27 13:36 | -35.40162 | 146.93657 | 10843 ft | 231 kts | 354° |
| 2026-04-27 13:36 | -35.38560 | 146.93535 | 10842 ft | 231 kts | 354° |
| 2026-04-27 13:36 | -35.36954 | 146.93412 | 10841 ft | 231 kts | 354° |
| 2026-04-27 13:36 | -35.35352 | 146.93290 | 10840 ft | 231 kts | 354° |
| 2026-04-27 13:37 | -35.33745 | 146.93168 | 10838 ft | 231 kts | 354° |
| 2026-04-27 13:37 | -35.32142 | 146.93046 | 10837 ft | 231 kts | 354° |
| 2026-04-27 13:37 | -35.30536 | 146.92924 | 10837 ft | 231 kts | 354° |
| 2026-04-27 13:37 | -35.28933 | 146.92802 | 10837 ft | 231 kts | 354° |
| 2026-04-27 13:38 | -35.27347 | 146.92681 | 10840 ft | 231 kts | 354° |
| 2026-04-27 13:38 | -35.25744 | 146.92559 | 10839 ft | 231 kts | 354° |
| 2026-04-27 13:38 | -35.24138 | 146.92437 | 10836 ft | 231 kts | 354° |
| 2026-04-27 13:38 | -35.22535 | 146.92315 | 10838 ft | 231 kts | 354° |
| 2026-04-27 13:39 | -35.20926 | 146.92193 | 10838 ft | 231 kts | 355° |
| 2026-04-27 13:39 | -35.19321 | 146.92072 | 10834 ft | 231 kts | 355° |
| 2026-04-27 13:39 | -35.17711 | 146.91950 | 10834 ft | 232 kts | 355° |
| 2026-04-27 13:39 | -35.16104 | 146.91828 | 10835 ft | 232 kts | 355° |
| 2026-04-27 13:40 | -35.14495 | 146.91706 | 10838 ft | 231 kts | 355° |
| 2026-04-27 13:40 | -35.12889 | 146.91584 | 10836 ft | 232 kts | 355° |
| 2026-04-27 13:40 | -35.11300 | 146.91464 | 10837 ft | 232 kts | 355° |
| 2026-04-27 13:40 | -35.09692 | 146.91342 | 10837 ft | 232 kts | 355° |
| 2026-04-27 13:41 | -35.08080 | 146.91220 | 10835 ft | 232 kts | 355° |
| 2026-04-27 13:41 | -35.06472 | 146.91099 | 10836 ft | 232 kts | 355° |
| 2026-04-27 13:41 | -35.04859 | 146.90977 | 10837 ft | 232 kts | 355° |
| 2026-04-27 13:41 | -35.03250 | 146.90855 | 10834 ft | 232 kts | 355° |
| 2026-04-27 13:42 | -35.01638 | 146.90734 | 10835 ft | 232 kts | 355° |
| 2026-04-27 13:42 | -35.00028 | 146.90612 | 10833 ft | 232 kts | 355° |
| 2026-04-27 13:42 | -34.98437 | 146.90492 | 10835 ft | 232 kts | 355° |
| 2026-04-27 13:42 | -34.96806 | 146.90369 | 10834 ft | 232 kts | 355° |
| 2026-04-27 13:43 | -34.95213 | 146.90249 | 10833 ft | 232 kts | 355° |
| 2026-04-27 13:43 | -34.93601 | 146.90127 | 10831 ft | 232 kts | 355° |
| 2026-04-27 13:43 | -34.91986 | 146.90005 | 10831 ft | 232 kts | 355° |
| 2026-04-27 13:43 | -34.90375 | 146.89884 | 10832 ft | 232 kts | 355° |
| 2026-04-27 13:44 | -34.88760 | 146.89763 | 10835 ft | 232 kts | 355° |
| 2026-04-27 13:44 | -34.87148 | 146.89641 | 10836 ft | 233 kts | 355° |
| 2026-04-27 13:44 | -34.85530 | 146.89519 | 10835 ft | 233 kts | 355° |
| 2026-04-27 13:44 | -34.83915 | 146.89398 | 10834 ft | 233 kts | 355° |
| 2026-04-27 13:45 | -34.82318 | 146.89278 | 10836 ft | 233 kts | 355° |
| 2026-04-27 13:45 | -34.80705 | 146.89156 | 10834 ft | 233 kts | 355° |
| 2026-04-27 13:45 | -34.79088 | 146.89035 | 10836 ft | 232 kts | 355° |
| 2026-04-27 13:45 | -34.77476 | 146.88914 | 10833 ft | 233 kts | 355° |
| 2026-04-27 13:46 | -34.75858 | 146.88793 | 10830 ft | 233 kts | 355° |
| 2026-04-27 13:46 | -34.74243 | 146.88672 | 10832 ft | 233 kts | 355° |
| 2026-04-27 13:46 | -34.72623 | 146.88550 | 10833 ft | 233 kts | 355° |
| 2026-04-27 13:46 | -34.71006 | 146.88429 | 10832 ft | 233 kts | 355° |
| 2026-04-27 13:47 | -34.69407 | 146.88309 | 10833 ft | 233 kts | 355° |
| 2026-04-27 13:47 | -34.67786 | 146.88188 | 10832 ft | 233 kts | 355° |
| 2026-04-27 13:47 | -34.66169 | 146.88066 | 10831 ft | 233 kts | 355° |
| 2026-04-27 13:47 | -34.64549 | 146.87945 | 10833 ft | 233 kts | 355° |
| 2026-04-27 13:48 | -34.62931 | 146.87824 | 10834 ft | 233 kts | 355° |
| 2026-04-27 13:48 | -34.61312 | 146.87703 | 10836 ft | 233 kts | 355° |
| 2026-04-27 13:48 | -34.59688 | 146.87581 | 10837 ft | 234 kts | 355° |
| 2026-04-27 13:48 | -34.58067 | 146.87460 | 10836 ft | 234 kts | 355° |
| 2026-04-27 13:49 | -34.56443 | 146.87340 | 10836 ft | 234 kts | 355° |
| 2026-04-27 13:49 | -34.54824 | 146.87218 | 10837 ft | 233 kts | 355° |
| 2026-04-27 13:49 | -34.53222 | 146.87099 | 10835 ft | 233 kts | 355° |
| 2026-04-27 13:49 | -34.51603 | 146.86978 | 10836 ft | 233 kts | 355° |
| 2026-04-27 13:50 | -34.49980 | 146.86857 | 10834 ft | 233 kts | 355° |
| 2026-04-27 13:50 | -34.48361 | 146.86736 | 10833 ft | 234 kts | 355° |
| 2026-04-27 13:50 | -34.46737 | 146.86615 | 10834 ft | 234 kts | 355° |
| 2026-04-27 13:50 | -34.45116 | 146.86494 | 10835 ft | 234 kts | 355° |
| 2026-04-27 13:51 | -34.43491 | 146.86373 | 10833 ft | 234 kts | 356° |
| 2026-04-27 13:51 | -34.41870 | 146.86253 | 10831 ft | 234 kts | 355° |
| 2026-04-27 13:51 | -34.40246 | 146.86132 | 10829 ft | 234 kts | 355° |
| 2026-04-27 13:51 | -34.38625 | 146.86011 | 10829 ft | 234 kts | 355° |
| 2026-04-27 13:52 | -34.37023 | 146.85892 | 10827 ft | 234 kts | 356° |
| 2026-04-27 13:52 | -34.35402 | 146.85772 | 10824 ft | 234 kts | 355° |
| 2026-04-27 13:52 | -34.33777 | 146.85651 | 10827 ft | 234 kts | 355° |
| 2026-04-27 13:52 | -34.32154 | 146.85530 | 10828 ft | 234 kts | 356° |
| 2026-04-27 13:53 | -34.28899 | 146.85289 | 10831 ft | 234 kts | 355° |
| 2026-04-27 13:53 | -34.27276 | 146.85168 | 10830 ft | 234 kts | 356° |
| 2026-04-27 13:53 | -34.25653 | 146.85048 | 10830 ft | 234 kts | 356° |
| 2026-04-27 13:54 | -34.24049 | 146.84929 | 10829 ft | 234 kts | 355° |
| 2026-04-27 13:54 | -34.22427 | 146.84809 | 10828 ft | 234 kts | 356° |
| 2026-04-27 13:54 | -34.20802 | 146.84689 | 10828 ft | 234 kts | 356° |
| 2026-04-27 13:54 | -34.19180 | 146.84568 | 10825 ft | 234 kts | 356° |
| 2026-04-27 13:55 | -34.17554 | 146.84449 | 10829 ft | 234 kts | 356° |
| 2026-04-27 13:55 | -34.15929 | 146.84328 | 10826 ft | 234 kts | 356° |
| 2026-04-27 13:55 | -34.14308 | 146.84207 | 10827 ft | 234 kts | 356° |
| 2026-04-27 13:55 | -34.12686 | 146.84088 | 10828 ft | 234 kts | 356° |
| 2026-04-27 13:56 | -34.11060 | 146.83969 | 10826 ft | 234 kts | 356° |
| 2026-04-27 13:56 | -34.09455 | 146.83849 | 10827 ft | 234 kts | 356° |
| 2026-04-27 13:56 | -34.07831 | 146.83729 | 10829 ft | 234 kts | 356° |
| 2026-04-27 13:56 | -34.06208 | 146.83610 | 10826 ft | 234 kts | 356° |
| 2026-04-27 13:57 | -34.04582 | 146.83490 | 10824 ft | 234 kts | 356° |
| 2026-04-27 13:57 | -34.02959 | 146.83370 | 10827 ft | 234 kts | 356° |
| 2026-04-27 13:57 | -34.01333 | 146.83250 | 10829 ft | 234 kts | 356° |
| 2026-04-27 13:57 | -33.99707 | 146.83130 | 10827 ft | 234 kts | 356° |
| 2026-04-27 13:58 | -33.98084 | 146.83011 | 10826 ft | 234 kts | 356° |
| 2026-04-27 13:58 | -33.96457 | 146.82891 | 10828 ft | 234 kts | 356° |
| 2026-04-27 13:58 | -33.94834 | 146.82771 | 10825 ft | 234 kts | 356° |
| 2026-04-27 13:58 | -33.93231 | 146.82653 | 10828 ft | 234 kts | 356° |
| 2026-04-27 13:59 | -33.91603 | 146.82534 | 10826 ft | 234 kts | 356° |
| 2026-04-27 13:59 | -33.89979 | 146.82414 | 10828 ft | 234 kts | 356° |
| 2026-04-27 13:59 | -33.88351 | 146.82294 | 10825 ft | 234 kts | 356° |
| 2026-04-27 13:59 | -33.86727 | 146.82175 | 10826 ft | 234 kts | 356° |
| 2026-04-27 14:00 | -33.85103 | 146.82056 | 10826 ft | 234 kts | 356° |
| 2026-04-27 14:00 | -33.83473 | 146.81936 | 10829 ft | 235 kts | 356° |
| 2026-04-27 14:00 | -33.81846 | 146.81817 | 10825 ft | 235 kts | 356° |
| 2026-04-27 14:00 | -33.80216 | 146.81697 | 10828 ft | 235 kts | 356° |
| 2026-04-27 14:01 | -33.78611 | 146.81579 | 10825 ft | 234 kts | 356° |
| 2026-04-27 14:01 | -33.76981 | 146.81460 | 10825 ft | 234 kts | 356° |
| 2026-04-27 14:01 | -33.75355 | 146.81341 | 10827 ft | 234 kts | 356° |
| 2026-04-27 14:01 | -33.73725 | 146.81221 | 10827 ft | 234 kts | 356° |
| 2026-04-27 14:02 | -33.72099 | 146.81102 | 10825 ft | 235 kts | 356° |
| 2026-04-27 14:02 | -33.70472 | 146.80983 | 10826 ft | 235 kts | 356° |
| 2026-04-27 14:02 | -33.68840 | 146.80864 | 10827 ft | 235 kts | 356° |
| 2026-04-27 14:02 | -33.67208 | 146.80744 | 10828 ft | 235 kts | 356° |
| 2026-04-27 14:03 | -33.65602 | 146.80627 | 10825 ft | 234 kts | 356° |
| 2026-04-27 14:03 | -33.63973 | 146.80508 | 10828 ft | 234 kts | 356° |
| 2026-04-27 14:03 | -33.62346 | 146.80389 | 10829 ft | 235 kts | 356° |
| 2026-04-27 14:03 | -33.60713 | 146.80270 | 10828 ft | 235 kts | 356° |
| 2026-04-27 14:04 | -33.59083 | 146.80151 | 10831 ft | 235 kts | 356° |
| 2026-04-27 14:04 | -33.57448 | 146.80032 | 10825 ft | 235 kts | 356° |
| 2026-04-27 14:04 | -33.55819 | 146.79913 | 10827 ft | 235 kts | 356° |
| 2026-04-27 14:04 | -33.54186 | 146.79794 | 10827 ft | 235 kts | 356° |
| 2026-04-27 14:05 | -33.52578 | 146.79676 | 10828 ft | 235 kts | 356° |
| 2026-04-27 14:05 | -33.50945 | 146.79557 | 10826 ft | 235 kts | 356° |
| 2026-04-27 14:05 | -33.49316 | 146.79439 | 10828 ft | 235 kts | 356° |
| 2026-04-27 14:05 | -33.47683 | 146.79320 | 10827 ft | 235 kts | 356° |
| 2026-04-27 14:06 | -33.46054 | 146.79201 | 10829 ft | 235 kts | 356° |
| 2026-04-27 14:06 | -33.44421 | 146.79082 | 10828 ft | 235 kts | 356° |
| 2026-04-27 14:06 | -33.42793 | 146.78964 | 10826 ft | 235 kts | 356° |
| 2026-04-27 14:06 | -33.41162 | 146.78845 | 10825 ft | 235 kts | 356° |
| 2026-04-27 14:07 | -33.39556 | 146.78728 | 10823 ft | 235 kts | 356° |
| 2026-04-27 14:07 | -33.37924 | 146.78610 | 10824 ft | 235 kts | 356° |
| 2026-04-27 14:07 | -33.36288 | 146.78492 | 10822 ft | 235 kts | 356° |
| 2026-04-27 14:07 | -33.34653 | 146.78373 | 10820 ft | 235 kts | 356° |
| 2026-04-27 14:08 | -33.33024 | 146.78254 | 10822 ft | 235 kts | 356° |
| 2026-04-27 14:08 | -33.31391 | 146.78136 | 10823 ft | 235 kts | 356° |
| 2026-04-27 14:08 | -33.29761 | 146.78018 | 10821 ft | 235 kts | 356° |
| 2026-04-27 14:08 | -33.28126 | 146.77899 | 10822 ft | 235 kts | 356° |
| 2026-04-27 14:09 | -33.26495 | 146.77781 | 10820 ft | 235 kts | 356° |
| 2026-04-27 14:09 | -33.24883 | 146.77664 | 10818 ft | 235 kts | 356° |
| 2026-04-27 14:09 | -33.23252 | 146.77546 | 10818 ft | 235 kts | 356° |
| 2026-04-27 14:09 | -33.21619 | 146.77428 | 10818 ft | 235 kts | 356° |
| 2026-04-27 14:10 | -33.19988 | 146.77310 | 10820 ft | 235 kts | 356° |
| 2026-04-27 14:10 | -33.18355 | 146.77192 | 10820 ft | 235 kts | 356° |
| 2026-04-27 14:10 | -33.16727 | 146.77074 | 10820 ft | 235 kts | 356° |
| 2026-04-27 14:10 | -33.15096 | 146.76956 | 10819 ft | 235 kts | 356° |
| 2026-04-27 14:11 | -33.13469 | 146.76839 | 10821 ft | 235 kts | 356° |
| 2026-04-27 14:11 | -33.11860 | 146.76723 | 10821 ft | 235 kts | 356° |
| 2026-04-27 14:11 | -33.10232 | 146.76605 | 10817 ft | 235 kts | 356° |
| 2026-04-27 14:11 | -33.08598 | 146.76487 | 10820 ft | 235 kts | 356° |
| 2026-04-27 14:12 | -33.06967 | 146.76370 | 10820 ft | 235 kts | 356° |
| 2026-04-27 14:12 | -33.05333 | 146.76252 | 10822 ft | 235 kts | 356° |
| 2026-04-27 14:12 | -33.03703 | 146.76134 | 10818 ft | 235 kts | 356° |
| 2026-04-27 14:12 | -33.02070 | 146.76017 | 10820 ft | 235 kts | 356° |
| 2026-04-27 14:13 | -33.00440 | 146.75899 | 10818 ft | 235 kts | 356° |
| 2026-04-27 14:13 | -32.98828 | 146.75783 | 10819 ft | 235 kts | 356° |
| 2026-04-27 14:13 | -32.97198 | 146.75666 | 10819 ft | 235 kts | 356° |
| 2026-04-27 14:13 | -32.95566 | 146.75548 | 10816 ft | 235 kts | 356° |
| 2026-04-27 14:14 | -32.93939 | 146.75431 | 10817 ft | 235 kts | 356° |
| 2026-04-27 14:14 | -32.92307 | 146.75314 | 10811 ft | 235 kts | 356° |
| 2026-04-27 14:14 | -32.90679 | 146.75197 | 10814 ft | 235 kts | 356° |
| 2026-04-27 14:14 | -32.89048 | 146.75080 | 10816 ft | 235 kts | 356° |
| 2026-04-27 14:15 | -32.87419 | 146.74963 | 10812 ft | 235 kts | 356° |
| 2026-04-27 14:15 | -32.85807 | 146.74847 | 10812 ft | 235 kts | 356° |
| 2026-04-27 14:15 | -32.84177 | 146.74730 | 10815 ft | 235 kts | 356° |
| 2026-04-27 14:15 | -32.82542 | 146.74613 | 10815 ft | 235 kts | 356° |
| 2026-04-27 14:16 | -32.80910 | 146.74496 | 10817 ft | 235 kts | 356° |
| 2026-04-27 14:16 | -32.79272 | 146.74378 | 10817 ft | 236 kts | 356° |
| 2026-04-27 14:16 | -32.77637 | 146.74261 | 10817 ft | 236 kts | 356° |
| 2026-04-27 14:16 | -32.75998 | 146.74144 | 10818 ft | 236 kts | 356° |
| 2026-04-27 14:17 | -32.74365 | 146.74027 | 10812 ft | 235 kts | 356° |
| 2026-04-27 14:17 | -32.72750 | 146.73911 | 10812 ft | 235 kts | 356° |
| 2026-04-27 14:17 | -32.71120 | 146.73795 | 10814 ft | 235 kts | 356° |
| 2026-04-27 14:17 | -32.69489 | 146.73678 | 10813 ft | 234 kts | 356° |
| 2026-04-27 14:18 | -32.67862 | 146.73562 | 10816 ft | 235 kts | 356° |
| 2026-04-27 14:18 | -32.66230 | 146.73445 | 10817 ft | 235 kts | 356° |
| 2026-04-27 14:18 | -32.64599 | 146.73328 | 10814 ft | 235 kts | 356° |
| 2026-04-27 14:18 | -32.62962 | 146.73212 | 10814 ft | 235 kts | 356° |
| 2026-04-27 14:19 | -32.61329 | 146.73095 | 10817 ft | 235 kts | 356° |
| 2026-04-27 14:19 | -32.59694 | 146.72978 | 10818 ft | 235 kts | 356° |
| 2026-04-27 14:19 | -32.58085 | 146.72863 | 10816 ft | 235 kts | 356° |
| 2026-04-27 14:19 | -32.56450 | 146.72747 | 10817 ft | 235 kts | 356° |
| 2026-04-27 14:20 | -32.54818 | 146.72631 | 10814 ft | 235 kts | 356° |
| 2026-04-27 14:20 | -32.53181 | 146.72514 | 10814 ft | 236 kts | 356° |
| 2026-04-27 14:20 | -32.51546 | 146.72397 | 10815 ft | 236 kts | 356° |
| 2026-04-27 14:20 | -32.49908 | 146.72281 | 10813 ft | 236 kts | 356° |
| 2026-04-27 14:21 | -32.48274 | 146.72165 | 10815 ft | 235 kts | 356° |
| 2026-04-27 14:21 | -32.46637 | 146.72048 | 10814 ft | 235 kts | 356° |
| 2026-04-27 14:21 | -32.45023 | 146.71933 | 10815 ft | 235 kts | 356° |
| 2026-04-27 14:21 | -32.43391 | 146.71817 | 10816 ft | 235 kts | 356° |
| 2026-04-27 14:22 | -32.41755 | 146.71701 | 10817 ft | 235 kts | 356° |
| 2026-04-27 14:22 | -32.40123 | 146.71585 | 10816 ft | 235 kts | 356° |
| 2026-04-27 14:22 | -32.38491 | 146.71469 | 10816 ft | 235 kts | 356° |
| 2026-04-27 14:22 | -32.36854 | 146.71353 | 10814 ft | 235 kts | 356° |
| 2026-04-27 14:23 | -32.35221 | 146.71237 | 10818 ft | 235 kts | 356° |
| 2026-04-27 14:23 | -32.33583 | 146.71121 | 10814 ft | 236 kts | 356° |
| 2026-04-27 14:23 | -32.31948 | 146.71004 | 10814 ft | 236 kts | 356° |
| 2026-04-27 14:23 | -32.30330 | 146.70890 | 10817 ft | 236 kts | 356° |
| 2026-04-27 14:24 | -32.28694 | 146.70774 | 10817 ft | 236 kts | 356° |
| 2026-04-27 14:24 | -32.27054 | 146.70658 | 10817 ft | 236 kts | 356° |
| 2026-04-27 14:24 | -32.25417 | 146.70542 | 10818 ft | 236 kts | 356° |
| 2026-04-27 14:24 | -32.23776 | 146.70426 | 10816 ft | 236 kts | 356° |
| 2026-04-27 14:25 | -32.22140 | 146.70310 | 10815 ft | 236 kts | 356° |
| 2026-04-27 14:25 | -32.20501 | 146.70194 | 10815 ft | 236 kts | 356° |
| 2026-04-27 14:25 | -32.18867 | 146.70078 | 10815 ft | 235 kts | 356° |
| 2026-04-27 14:25 | -32.17253 | 146.69964 | 10816 ft | 235 kts | 356° |
| 2026-04-27 14:26 | -32.15623 | 146.69849 | 10815 ft | 235 kts | 356° |
| 2026-04-27 14:26 | -32.13990 | 146.69733 | 10812 ft | 235 kts | 356° |
| 2026-04-27 14:26 | -32.12358 | 146.69618 | 10812 ft | 235 kts | 356° |
| 2026-04-27 14:26 | -32.10729 | 146.69504 | 10814 ft | 235 kts | 356° |
| 2026-04-27 14:27 | -32.09098 | 146.69388 | 10817 ft | 235 kts | 357° |
| 2026-04-27 14:27 | -32.07465 | 146.69273 | 10815 ft | 235 kts | 357° |
| 2026-04-27 14:27 | -32.05836 | 146.69158 | 10813 ft | 235 kts | 357° |
| 2026-04-27 14:27 | -32.04205 | 146.69043 | 10816 ft | 235 kts | 357° |
| 2026-04-27 14:28 | -32.02577 | 146.68928 | 10815 ft | 235 kts | 357° |
| 2026-04-27 14:28 | -32.00966 | 146.68815 | 10813 ft | 235 kts | 357° |
| 2026-04-27 14:28 | -31.99336 | 146.68701 | 10814 ft | 235 kts | 357° |
| 2026-04-27 14:28 | -31.97702 | 146.68585 | 10813 ft | 235 kts | 357° |
| 2026-04-27 14:29 | -31.96073 | 146.68470 | 10814 ft | 235 kts | 357° |
| 2026-04-27 14:29 | -31.94441 | 146.68356 | 10812 ft | 235 kts | 357° |
| 2026-04-27 14:29 | -31.92812 | 146.68241 | 10815 ft | 235 kts | 357° |
| 2026-04-27 14:29 | -31.91180 | 146.68126 | 10813 ft | 235 kts | 357° |
| 2026-04-27 14:30 | -31.89607 | 146.68016 | 10816 ft | 235 kts | 357° |
| 2026-04-27 14:30 | -31.87978 | 146.67902 | 10813 ft | 235 kts | 357° |
| 2026-04-27 14:30 | -31.86347 | 146.67787 | 10813 ft | 235 kts | 357° |
| 2026-04-27 14:30 | -31.84712 | 146.67672 | 10813 ft | 235 kts | 357° |
| 2026-04-27 14:31 | -31.83080 | 146.67557 | 10812 ft | 235 kts | 357° |
| 2026-04-27 14:31 | -31.81446 | 146.67443 | 10812 ft | 235 kts | 357° |
| 2026-04-27 14:31 | -31.79811 | 146.67328 | 10813 ft | 235 kts | 357° |
| 2026-04-27 14:31 | -31.78179 | 146.67214 | 10810 ft | 235 kts | 357° |
| 2026-04-27 14:32 | -31.76544 | 146.67100 | 10811 ft | 235 kts | 357° |
| 2026-04-27 14:32 | -31.74935 | 146.66986 | 10811 ft | 235 kts | 357° |
| 2026-04-27 14:32 | -31.73305 | 146.66872 | 10812 ft | 235 kts | 357° |
| 2026-04-27 14:32 | -31.71670 | 146.66759 | 10811 ft | 235 kts | 357° |
| 2026-04-27 14:33 | -31.70036 | 146.66643 | 10809 ft | 235 kts | 357° |
| 2026-04-27 14:33 | -31.68405 | 146.66529 | 10809 ft | 235 kts | 357° |
| 2026-04-27 14:33 | -31.66770 | 146.66415 | 10807 ft | 235 kts | 357° |
| 2026-04-27 14:33 | -31.65139 | 146.66301 | 10808 ft | 235 kts | 357° |
| 2026-04-27 14:34 | -31.63503 | 146.66186 | 10809 ft | 235 kts | 357° |
| 2026-04-27 14:34 | -31.61893 | 146.66074 | 10811 ft | 235 kts | 357° |
| 2026-04-27 14:34 | -31.60262 | 146.65961 | 10810 ft | 235 kts | 357° |
| 2026-04-27 14:34 | -31.58627 | 146.65846 | 10809 ft | 235 kts | 357° |
| 2026-04-27 14:35 | -31.56992 | 146.65732 | 10810 ft | 235 kts | 357° |
| 2026-04-27 14:35 | -31.55361 | 146.65619 | 10806 ft | 235 kts | 357° |
| 2026-04-27 14:35 | -31.53729 | 146.65505 | 10806 ft | 235 kts | 357° |
| 2026-04-27 14:35 | -31.52093 | 146.65391 | 10808 ft | 235 kts | 357° |
| 2026-04-27 14:36 | -31.50459 | 146.65277 | 10808 ft | 236 kts | 357° |
| 2026-04-27 14:36 | -31.48821 | 146.65162 | 10808 ft | 236 kts | 357° |
| 2026-04-27 14:36 | -31.47203 | 146.65050 | 10809 ft | 236 kts | 357° |
| 2026-04-27 14:36 | -31.45567 | 146.64936 | 10808 ft | 236 kts | 357° |
| 2026-04-27 14:37 | -31.43930 | 146.64822 | 10806 ft | 235 kts | 357° |
| 2026-04-27 14:37 | -31.42298 | 146.64709 | 10805 ft | 235 kts | 357° |
| 2026-04-27 14:37 | -31.40662 | 146.64595 | 10805 ft | 235 kts | 357° |
| 2026-04-27 14:37 | -31.39030 | 146.64482 | 10805 ft | 235 kts | 357° |
| 2026-04-27 14:38 | -31.37393 | 146.64367 | 10803 ft | 236 kts | 357° |
| 2026-04-27 14:38 | -31.35758 | 146.64254 | 10802 ft | 236 kts | 357° |
| 2026-04-27 14:38 | -31.34121 | 146.64140 | 10802 ft | 236 kts | 357° |
| 2026-04-27 14:38 | -31.32509 | 146.64029 | 10803 ft | 235 kts | 358° |
| 2026-04-27 14:39 | -31.30877 | 146.63915 | 10806 ft | 235 kts | 357° |
| 2026-04-27 14:39 | -31.29242 | 146.63802 | 10806 ft | 235 kts | 357° |
| 2026-04-27 14:39 | -31.27608 | 146.63688 | 10804 ft | 236 kts | 358° |
| 2026-04-27 14:39 | -31.25969 | 146.63575 | 10802 ft | 236 kts | 358° |
| 2026-04-27 14:40 | -31.24330 | 146.63462 | 10804 ft | 236 kts | 357° |
| 2026-04-27 14:40 | -31.22695 | 146.63348 | 10802 ft | 236 kts | 358° |
| 2026-04-27 14:40 | -31.21057 | 146.63235 | 10798 ft | 236 kts | 358° |
| 2026-04-27 14:40 | -31.19444 | 146.63123 | 10802 ft | 236 kts | 358° |
| 2026-04-27 14:41 | -31.17805 | 146.63010 | 10800 ft | 236 kts | 358° |
| 2026-04-27 14:41 | -31.16171 | 146.62897 | 10798 ft | 236 kts | 358° |
| 2026-04-27 14:41 | -31.14533 | 146.62783 | 10796 ft | 236 kts | 358° |
| 2026-04-27 14:41 | -31.12899 | 146.62671 | 10799 ft | 235 kts | 358° |
| 2026-04-27 14:42 | -31.11262 | 146.62557 | 10793 ft | 235 kts | 358° |
| 2026-04-27 14:42 | -31.09629 | 146.62445 | 10795 ft | 235 kts | 358° |
| 2026-04-27 14:42 | -31.07991 | 146.62331 | 10795 ft | 236 kts | 358° |
| 2026-04-27 14:42 | -31.06356 | 146.62218 | 10795 ft | 236 kts | 358° |
| 2026-04-27 14:43 | -31.04738 | 146.62107 | 10797 ft | 236 kts | 358° |
| 2026-04-27 14:43 | -31.03103 | 146.61994 | 10796 ft | 236 kts | 358° |
| 2026-04-27 14:43 | -31.01464 | 146.61881 | 10799 ft | 236 kts | 358° |
| 2026-04-27 14:43 | -30.99830 | 146.61768 | 10795 ft | 236 kts | 358° |
| 2026-04-27 14:44 | -30.98192 | 146.61656 | 10795 ft | 236 kts | 358° |
| 2026-04-27 14:44 | -30.96556 | 146.61543 | 10793 ft | 236 kts | 358° |
| 2026-04-27 14:44 | -30.94916 | 146.61430 | 10795 ft | 236 kts | 358° |
| 2026-04-27 14:44 | -30.93279 | 146.61317 | 10791 ft | 236 kts | 358° |
| 2026-04-27 14:45 | -30.91661 | 146.61206 | 10793 ft | 236 kts | 358° |
| 2026-04-27 14:45 | -30.90026 | 146.61093 | 10792 ft | 236 kts | 358° |
| 2026-04-27 14:45 | -30.88387 | 146.60981 | 10790 ft | 236 kts | 358° |
| 2026-04-27 14:45 | -30.86752 | 146.60868 | 10790 ft | 236 kts | 358° |
| 2026-04-27 14:46 | -30.85110 | 146.60755 | 10791 ft | 236 kts | 358° |
| 2026-04-27 14:46 | -30.83468 | 146.60643 | 10791 ft | 236 kts | 358° |
| 2026-04-27 14:46 | -30.81830 | 146.60530 | 10790 ft | 236 kts | 358° |
| 2026-04-27 14:46 | -30.80192 | 146.60417 | 10791 ft | 236 kts | 358° |
| 2026-04-27 14:47 | -30.78551 | 146.60305 | 10787 ft | 236 kts | 358° |
| 2026-04-27 14:47 | -30.76913 | 146.60193 | 10788 ft | 236 kts | 358° |
| 2026-04-27 14:47 | -30.75292 | 146.60081 | 10788 ft | 236 kts | 358° |
| 2026-04-27 14:47 | -30.73653 | 146.59969 | 10785 ft | 236 kts | 358° |
| 2026-04-27 14:48 | -30.72010 | 146.59857 | 10790 ft | 236 kts | 358° |
| 2026-04-27 14:48 | -30.68727 | 146.59631 | 10789 ft | 236 kts | 358° |
| 2026-04-27 14:48 | -30.67086 | 146.59519 | 10786 ft | 236 kts | 358° |
| 2026-04-27 14:49 | -30.65443 | 146.59407 | 10787 ft | 236 kts | 358° |
| 2026-04-27 14:49 | -30.63805 | 146.59295 | 10783 ft | 236 kts | 358° |
| 2026-04-27 14:49 | -30.62185 | 146.59184 | 10786 ft | 236 kts | 358° |
| 2026-04-27 14:49 | -30.60546 | 146.59072 | 10783 ft | 236 kts | 358° |
| 2026-04-27 14:50 | -30.58903 | 146.58959 | 10783 ft | 236 kts | 358° |
| 2026-04-27 14:50 | -30.57260 | 146.58848 | 10785 ft | 236 kts | 358° |
| 2026-04-27 14:50 | -30.55621 | 146.58735 | 10786 ft | 236 kts | 358° |
| 2026-04-27 14:50 | -30.53981 | 146.58623 | 10784 ft | 236 kts | 358° |
| 2026-04-27 14:51 | -30.52339 | 146.58511 | 10783 ft | 236 kts | 358° |
| 2026-04-27 14:51 | -30.50701 | 146.58400 | 10785 ft | 236 kts | 358° |
| 2026-04-27 14:51 | -30.49082 | 146.58289 | 10783 ft | 236 kts | 358° |
| 2026-04-27 14:51 | -30.47976 | 146.58213 | 10782 ft | 236 kts | 358° |
| 2026-04-27 14:52 | -30.45802 | 146.58066 | 10784 ft | 236 kts | 358° |
| 2026-04-27 14:52 | -30.44162 | 146.57953 | 10783 ft | 236 kts | 358° |
| 2026-04-27 14:52 | -30.42518 | 146.57841 | 10780 ft | 236 kts | 358° |
| 2026-04-27 14:52 | -30.40877 | 146.57731 | 10782 ft | 236 kts | 358° |
| 2026-04-27 14:53 | -30.39233 | 146.57618 | 10780 ft | 236 kts | 358° |
| 2026-04-27 14:53 | -30.37595 | 146.57506 | 10778 ft | 236 kts | 358° |
| 2026-04-27 14:53 | -30.35956 | 146.57395 | 10779 ft | 236 kts | 358° |
| 2026-04-27 14:53 | -30.34320 | 146.57284 | 10779 ft | 236 kts | 358° |
| 2026-04-27 14:54 | -30.32701 | 146.57174 | 10778 ft | 236 kts | 358° |
| 2026-04-27 14:54 | -30.31064 | 146.57062 | 10777 ft | 236 kts | 358° |
| 2026-04-27 14:54 | -30.29423 | 146.56951 | 10779 ft | 236 kts | 358° |
| 2026-04-27 14:54 | -30.27788 | 146.56840 | 10779 ft | 236 kts | 358° |
| 2026-04-27 14:55 | -30.26150 | 146.56728 | 10776 ft | 235 kts | 359° |
| 2026-04-27 14:55 | -30.24516 | 146.56618 | 10780 ft | 236 kts | 359° |
| 2026-04-27 14:55 | -30.22878 | 146.56506 | 10778 ft | 236 kts | 359° |
| 2026-04-27 14:55 | -30.21243 | 146.56396 | 10774 ft | 236 kts | 359° |
| 2026-04-27 14:56 | -30.19605 | 146.56285 | 10772 ft | 235 kts | 359° |
| 2026-04-27 14:56 | -30.17968 | 146.56174 | 10774 ft | 235 kts | 359° |
| 2026-04-27 14:56 | -30.16357 | 146.56064 | 10771 ft | 235 kts | 359° |
| 2026-04-27 14:56 | -30.14724 | 146.55954 | 10771 ft | 236 kts | 359° |
| 2026-04-27 14:57 | -30.13085 | 146.55843 | 10771 ft | 236 kts | 359° |
| 2026-04-27 14:57 | -30.11450 | 146.55732 | 10769 ft | 236 kts | 359° |
| 2026-04-27 14:57 | -30.09813 | 146.55622 | 10769 ft | 235 kts | 359° |
| 2026-04-27 14:57 | -30.08181 | 146.55511 | 10769 ft | 235 kts | 359° |
| 2026-04-27 14:58 | -30.06547 | 146.55401 | 10772 ft | 235 kts | 359° |
| 2026-04-27 14:58 | -30.04916 | 146.55290 | 10769 ft | 235 kts | 359° |
| 2026-04-27 14:58 | -30.03303 | 146.55182 | 10767 ft | 235 kts | 359° |
| 2026-04-27 14:58 | -30.01670 | 146.55071 | 10769 ft | 235 kts | 359° |
| 2026-04-27 14:59 | -30.00035 | 146.54961 | 10767 ft | 235 kts | 359° |
| 2026-04-27 14:59 | -29.98402 | 146.54851 | 10770 ft | 235 kts | 359° |
| 2026-04-27 14:59 | -29.96769 | 146.54740 | 10767 ft | 235 kts | 359° |
| 2026-04-27 14:59 | -29.95136 | 146.54630 | 10767 ft | 235 kts | 359° |
| 2026-04-27 15:00 | -29.93514 | 146.54521 | 10774 ft | 235 kts | 359° |
| 2026-04-27 15:00 | -29.91885 | 146.54411 | 10768 ft | 235 kts | 359° |
| 2026-04-27 15:00 | -29.90252 | 146.54301 | 10773 ft | 235 kts | 359° |
| 2026-04-27 15:00 | -29.88623 | 146.54191 | 10767 ft | 235 kts | 359° |
| 2026-04-27 15:01 | -29.87011 | 146.54082 | 10773 ft | 235 kts | 359° |
| 2026-04-27 15:01 | -29.85381 | 146.53973 | 10774 ft | 235 kts | 359° |
| 2026-04-27 15:01 | -29.83748 | 146.53863 | 10766 ft | 235 kts | 359° |
| 2026-04-27 15:01 | -29.82120 | 146.53753 | 10767 ft | 235 kts | 359° |
| 2026-04-27 15:02 | -29.80488 | 146.53643 | 10766 ft | 235 kts | 359° |
| 2026-04-27 15:02 | -29.78860 | 146.53534 | 10768 ft | 235 kts | 359° |
| 2026-04-27 15:02 | -29.77227 | 146.53424 | 10767 ft | 235 kts | 359° |
| 2026-04-27 15:02 | -29.75597 | 146.53314 | 10766 ft | 235 kts | 359° |
| 2026-04-27 15:03 | -29.73963 | 146.53204 | 10764 ft | 235 kts | 359° |
| 2026-04-27 15:03 | -29.72352 | 146.53097 | 10767 ft | 235 kts | 359° |
| 2026-04-27 15:03 | -29.70723 | 146.52988 | 10766 ft | 235 kts | 359° |
| 2026-04-27 15:03 | -29.69090 | 146.52877 | 10766 ft | 235 kts | 359° |
| 2026-04-27 15:04 | -29.67460 | 146.52768 | 10769 ft | 235 kts | 359° |
| 2026-04-27 15:04 | -29.65826 | 146.52659 | 10765 ft | 235 kts | 359° |
| 2026-04-27 15:04 | -29.64198 | 146.52549 | 10763 ft | 235 kts | 359° |
| 2026-04-27 15:04 | -29.62570 | 146.52441 | 10763 ft | 234 kts | 359° |
| 2026-04-27 15:05 | -29.60939 | 146.52331 | 10762 ft | 235 kts | 359° |
| 2026-04-27 15:05 | -29.59307 | 146.52222 | 10759 ft | 235 kts | 359° |
| 2026-04-27 15:05 | -29.57699 | 146.52114 | 10762 ft | 235 kts | 359° |
| 2026-04-27 15:05 | -29.56069 | 146.52005 | 10764 ft | 235 kts | 359° |
| 2026-04-27 15:06 | -29.54436 | 146.51896 | 10757 ft | 235 kts | 359° |
| 2026-04-27 15:06 | -29.52805 | 146.51786 | 10763 ft | 235 kts | 359° |
| 2026-04-27 15:06 | -29.51177 | 146.51678 | 10758 ft | 235 kts | 359° |
| 2026-04-27 15:06 | -29.49546 | 146.51569 | 10760 ft | 235 kts | 359° |
| 2026-04-27 15:07 | -29.47918 | 146.51460 | 10758 ft | 235 kts | 359° |
| 2026-04-27 15:07 | -29.46286 | 146.51351 | 10760 ft | 235 kts | 359° |
| 2026-04-27 15:07 | -29.44679 | 146.51244 | 10761 ft | 235 kts | 359° |
| 2026-04-27 15:07 | -29.43047 | 146.51135 | 10759 ft | 235 kts | 359° |
| 2026-04-27 15:08 | -29.41419 | 146.51026 | 10758 ft | 235 kts | 359° |
| 2026-04-27 15:08 | -29.39788 | 146.50917 | 10757 ft | 234 kts | 359° |
| 2026-04-27 15:08 | -29.38161 | 146.50809 | 10756 ft | 235 kts | 359° |
| 2026-04-27 15:08 | -29.36529 | 146.50700 | 10758 ft | 235 kts | 359° |
| 2026-04-27 15:09 | -29.34899 | 146.50591 | 10760 ft | 235 kts | 359° |
| 2026-04-27 15:09 | -29.33265 | 146.50482 | 10766 ft | 235 kts | 359° |
| 2026-04-27 15:09 | -29.31634 | 146.50373 | 10761 ft | 235 kts | 359° |
| 2026-04-27 15:09 | -29.30022 | 146.50266 | 10757 ft | 235 kts | 359° |
| 2026-04-27 15:10 | -29.28393 | 146.50158 | 10757 ft | 235 kts | 359° |
| 2026-04-27 15:10 | -29.26762 | 146.50049 | 10755 ft | 235 kts | 359° |
| 2026-04-27 15:10 | -29.25135 | 146.49941 | 10759 ft | 234 kts | 359° |
| 2026-04-27 15:10 | -29.23504 | 146.49833 | 10764 ft | 235 kts | 359° |
| 2026-04-27 15:11 | -29.21876 | 146.49724 | 10759 ft | 235 kts | 359° |
| 2026-04-27 15:11 | -29.20244 | 146.49616 | 10758 ft | 235 kts | 359° |
| 2026-04-27 15:11 | -29.18614 | 146.49507 | 10755 ft | 235 kts | 359° |
| 2026-04-27 15:11 | -29.17002 | 146.49400 | 10757 ft | 235 kts | 359° |
| 2026-04-27 15:12 | -29.15372 | 146.49292 | 10756 ft | 235 kts | 359° |
| 2026-04-27 15:12 | -29.13742 | 146.49184 | 10758 ft | 235 kts | 359° |
| 2026-04-27 15:12 | -29.12110 | 146.49076 | 10756 ft | 235 kts | 359° |
| 2026-04-27 15:12 | -29.10476 | 146.48967 | 10757 ft | 235 kts | 359° |
| 2026-04-27 15:13 | -29.08844 | 146.48859 | 10754 ft | 235 kts | 359° |
| 2026-04-27 15:13 | -29.07208 | 146.48750 | 10753 ft | 235 kts | 360° |
| 2026-04-27 15:13 | -29.05574 | 146.48642 | 10754 ft | 235 kts | 360° |
| 2026-04-27 15:13 | -29.03936 | 146.48534 | 10756 ft | 235 kts | 360° |
| 2026-04-27 15:14 | -29.02304 | 146.48426 | 10754 ft | 235 kts | 359° |
| 2026-04-27 15:14 | -29.00691 | 146.48318 | 10755 ft | 235 kts | 360° |
| 2026-04-27 15:14 | -28.99059 | 146.48211 | 10754 ft | 235 kts | 360° |
| 2026-04-27 15:14 | -28.97423 | 146.48103 | 10749 ft | 235 kts | 360° |
| 2026-04-27 15:15 | -28.95788 | 146.47994 | 10751 ft | 236 kts | 360° |
| 2026-04-27 15:15 | -28.94147 | 146.47886 | 10749 ft | 236 kts | 360° |
| 2026-04-27 15:15 | -28.92510 | 146.47777 | 10750 ft | 236 kts | 360° |
| 2026-04-27 15:15 | -28.90890 | 146.47670 | 10751 ft | 236 kts | 360° |
| 2026-04-27 15:16 | -28.89251 | 146.47562 | 10751 ft | 236 kts | 360° |
| 2026-04-27 15:16 | -28.87608 | 146.47454 | 10750 ft | 236 kts | 360° |
| 2026-04-27 15:16 | -28.85969 | 146.47345 | 10752 ft | 236 kts | 360° |
| 2026-04-27 15:16 | -28.84325 | 146.47237 | 10747 ft | 236 kts | 360° |
| 2026-04-27 15:17 | -28.82683 | 146.47128 | 10749 ft | 237 kts | 360° |
| 2026-04-27 15:17 | -28.81037 | 146.47020 | 10748 ft | 237 kts | 360° |
| 2026-04-27 15:17 | -28.79394 | 146.46912 | 10747 ft | 237 kts | 360° |
| 2026-04-27 15:17 | -28.77745 | 146.46803 | 10747 ft | 237 kts | 360° |
| 2026-04-27 15:18 | -28.76099 | 146.46694 | 10750 ft | 237 kts | 360° |
| 2026-04-27 15:18 | -28.74471 | 146.46587 | 10750 ft | 237 kts | 360° |
| 2026-04-27 15:18 | -28.72829 | 146.46479 | 10750 ft | 236 kts | 360° |
| 2026-04-27 15:18 | -28.71186 | 146.46371 | 10744 ft | 236 kts | 360° |
| 2026-04-27 15:19 | -28.69547 | 146.46263 | 10745 ft | 236 kts | 360° |
| 2026-04-27 15:19 | -28.67902 | 146.46154 | 10747 ft | 236 kts | 360° |
| 2026-04-27 15:19 | -28.66262 | 146.46047 | 10746 ft | 236 kts | 360° |
| 2026-04-27 15:19 | -28.64619 | 146.45939 | 10747 ft | 236 kts | 360° |
| 2026-04-27 15:20 | -28.62981 | 146.45831 | 10748 ft | 236 kts | 360° |
| 2026-04-27 15:20 | -28.61360 | 146.45724 | 10746 ft | 236 kts | 360° |
| 2026-04-27 15:20 | -28.59721 | 146.45617 | 10743 ft | 236 kts | 360° |
| 2026-04-27 15:20 | -28.58080 | 146.45509 | 10746 ft | 236 kts | 360° |
| 2026-04-27 15:21 | -28.56444 | 146.45402 | 10744 ft | 236 kts | 360° |
| 2026-04-27 15:21 | -28.54805 | 146.45294 | 10743 ft | 236 kts | 360° |
| 2026-04-27 15:21 | -28.53169 | 146.45187 | 10743 ft | 236 kts | 360° |
| 2026-04-27 15:21 | -28.51528 | 146.45079 | 10744 ft | 236 kts | 360° |
| 2026-04-27 15:22 | -28.49889 | 146.44972 | 10743 ft | 236 kts | 360° |
| 2026-04-27 15:22 | -28.48246 | 146.44864 | 10746 ft | 236 kts | 360° |
| 2026-04-27 15:22 | -28.46609 | 146.44756 | 10744 ft | 236 kts | 360° |
| 2026-04-27 15:22 | -28.44993 | 146.44650 | 10743 ft | 235 kts | 360° |
| 2026-04-27 15:23 | -28.43359 | 146.44544 | 10744 ft | 235 kts | 360° |
| 2026-04-27 15:23 | -28.41722 | 146.44436 | 10742 ft | 236 kts | 360° |
| 2026-04-27 15:23 | -28.40088 | 146.44329 | 10743 ft | 235 kts | 0° |
| 2026-04-27 15:23 | -28.38452 | 146.44222 | 10746 ft | 235 kts | 360° |
| 2026-04-27 15:24 | -28.36821 | 146.44116 | 10744 ft | 235 kts | 360° |
| 2026-04-27 15:24 | -28.35185 | 146.44009 | 10741 ft | 235 kts | 360° |
| 2026-04-27 15:24 | -28.33552 | 146.43902 | 10742 ft | 236 kts | 360° |
| 2026-04-27 15:24 | -28.31914 | 146.43795 | 10746 ft | 235 kts | 360° |
| 2026-04-27 15:25 | -28.30282 | 146.43688 | 10743 ft | 235 kts | 360° |
| 2026-04-27 15:25 | -28.28671 | 146.43583 | 10745 ft | 235 kts | 360° |
| 2026-04-27 15:25 | -28.27041 | 146.43477 | 10740 ft | 235 kts | 360° |
| 2026-04-27 15:25 | -28.25408 | 146.43370 | 10743 ft | 235 kts | 360° |
| 2026-04-27 15:26 | -28.23776 | 146.43264 | 10743 ft | 235 kts | 360° |
| 2026-04-27 15:26 | -28.22140 | 146.43157 | 10739 ft | 235 kts | 360° |
| 2026-04-27 15:26 | -28.20504 | 146.43050 | 10737 ft | 235 kts | 360° |
| 2026-04-27 15:26 | -28.19424 | 146.42979 | 10742 ft | 235 kts | 360° |
| 2026-04-27 15:27 | -28.17243 | 146.42838 | 10742 ft | 235 kts | 360° |
| 2026-04-27 15:27 | -28.16161 | 146.42767 | 10739 ft | 235 kts | 360° |
| 2026-04-27 15:27 | -28.14004 | 146.42627 | 10740 ft | 235 kts | 360° |
| 2026-04-27 15:27 | -28.12371 | 146.42520 | 10741 ft | 235 kts | 360° |
| 2026-04-27 15:28 | -28.10742 | 146.42414 | 10742 ft | 235 kts | 360° |
| 2026-04-27 15:28 | -28.09109 | 146.42308 | 10743 ft | 235 kts | 360° |
| 2026-04-27 15:28 | -28.08029 | 146.42238 | 10735 ft | 235 kts | 360° |
| 2026-04-27 15:28 | -28.05847 | 146.42096 | 10735 ft | 235 kts | 360° |
| 2026-04-27 15:29 | -28.04770 | 146.42025 | 10736 ft | 234 kts | 360° |
| 2026-04-27 15:29 | -28.03140 | 146.41920 | 10735 ft | 235 kts | 360° |
| 2026-04-27 15:29 | -28.01512 | 146.41814 | 10737 ft | 235 kts | 360° |
| 2026-04-27 15:29 | -27.99878 | 146.41708 | 10735 ft | 235 kts | 0° |
| 2026-04-27 15:30 | -27.97729 | 146.41568 | 10736 ft | 235 kts | 360° |
| 2026-04-27 15:30 | -27.96625 | 146.41496 | 10735 ft | 235 kts | 360° |
| 2026-04-27 15:30 | -27.94992 | 146.41391 | 10736 ft | 235 kts | 360° |
| 2026-04-27 15:30 | -27.93383 | 146.41286 | 10736 ft | 235 kts | 360° |
| 2026-04-27 15:31 | -27.91752 | 146.41180 | 10737 ft | 235 kts | 360° |
| 2026-04-27 15:31 | -27.90120 | 146.41075 | 10737 ft | 235 kts | 360° |
| 2026-04-27 15:31 | -27.88493 | 146.40969 | 10737 ft | 234 kts | 360° |
| 2026-04-27 15:31 | -27.86863 | 146.40863 | 10735 ft | 234 kts | 360° |
| 2026-04-27 15:32 | -27.85237 | 146.40758 | 10732 ft | 234 kts | 360° |
| 2026-04-27 15:32 | -27.83607 | 146.40653 | 10732 ft | 234 kts | 360° |
| 2026-04-27 15:32 | -27.81981 | 146.40548 | 10731 ft | 234 kts | 360° |
| 2026-04-27 15:32 | -27.80351 | 146.40442 | 10730 ft | 234 kts | 360° |
| 2026-04-27 15:33 | -27.78724 | 146.40336 | 10733 ft | 234 kts | 360° |
| 2026-04-27 15:33 | -27.77115 | 146.40232 | 10732 ft | 234 kts | 360° |
| 2026-04-27 15:33 | -27.75488 | 146.40127 | 10731 ft | 235 kts | 360° |
| 2026-04-27 15:33 | -27.73857 | 146.40022 | 10732 ft | 235 kts | 360° |
| 2026-04-27 15:34 | -27.72229 | 146.39916 | 10729 ft | 235 kts | 360° |
| 2026-04-27 15:34 | -27.70598 | 146.39811 | 10732 ft | 234 kts | 360° |
| 2026-04-27 15:34 | -27.68972 | 146.39706 | 10730 ft | 234 kts | 360° |
| 2026-04-27 15:34 | -27.67342 | 146.39601 | 10731 ft | 234 kts | 360° |
| 2026-04-27 15:35 | -27.65716 | 146.39496 | 10729 ft | 234 kts | 360° |
| 2026-04-27 15:35 | -27.64086 | 146.39391 | 10732 ft | 234 kts | 360° |
| 2026-04-27 15:35 | -27.62482 | 146.39287 | 10726 ft | 234 kts | 360° |
| 2026-04-27 15:35 | -27.60852 | 146.39182 | 10729 ft | 234 kts | 360° |
| 2026-04-27 15:36 | -27.59225 | 146.39077 | 10730 ft | 235 kts | 360° |
| 2026-04-27 15:36 | -27.57595 | 146.38972 | 10728 ft | 234 kts | 360° |
| 2026-04-27 15:36 | -27.55969 | 146.38867 | 10730 ft | 234 kts | 360° |
| 2026-04-27 15:36 | -27.54341 | 146.38763 | 10728 ft | 234 kts | 360° |
| 2026-04-27 15:37 | -27.52716 | 146.38657 | 10731 ft | 234 kts | 360° |
| 2026-04-27 15:37 | -27.51087 | 146.38553 | 10728 ft | 234 kts | 360° |
| 2026-04-27 15:37 | -27.49461 | 146.38448 | 10731 ft | 234 kts | 360° |
| 2026-04-27 15:37 | -27.47833 | 146.38343 | 10732 ft | 234 kts | 360° |
| 2026-04-27 15:38 | -27.46208 | 146.38239 | 10730 ft | 234 kts | 360° |
| 2026-04-27 15:38 | -27.44602 | 146.38135 | 10731 ft | 234 kts | 360° |
| 2026-04-27 15:38 | -27.42977 | 146.38031 | 10728 ft | 234 kts | 360° |
| 2026-04-27 15:38 | -27.41349 | 146.37926 | 10727 ft | 234 kts | 360° |
| 2026-04-27 15:39 | -27.39722 | 146.37822 | 10730 ft | 234 kts | 360° |
| 2026-04-27 15:39 | -27.38091 | 146.37717 | 10728 ft | 235 kts | 360° |
| 2026-04-27 15:39 | -27.36463 | 146.37613 | 10730 ft | 235 kts | 360° |
| 2026-04-27 15:39 | -27.34832 | 146.37508 | 10731 ft | 234 kts | 360° |
| 2026-04-27 15:40 | -27.33208 | 146.37403 | 10731 ft | 234 kts | 360° |
| 2026-04-27 15:40 | -27.31581 | 146.37300 | 10732 ft | 234 kts | 360° |
| 2026-04-27 15:40 | -27.29979 | 146.37197 | 10730 ft | 234 kts | 360° |
| 2026-04-27 15:40 | -27.28350 | 146.37092 | 10729 ft | 234 kts | 360° |
| 2026-04-27 15:41 | -27.26724 | 146.36988 | 10729 ft | 234 kts | 360° |
| 2026-04-27 15:41 | -27.25094 | 146.36884 | 10730 ft | 234 kts | 360° |
| 2026-04-27 15:41 | -27.23467 | 146.36779 | 10729 ft | 234 kts | 360° |
| 2026-04-27 15:41 | -27.21837 | 146.36675 | 10728 ft | 234 kts | 360° |
| 2026-04-27 15:42 | -27.20208 | 146.36571 | 10729 ft | 234 kts | 360° |
| 2026-04-27 15:42 | -27.18583 | 146.36466 | 10731 ft | 234 kts | 360° |
| 2026-04-27 15:42 | -27.16957 | 146.36363 | 10728 ft | 234 kts | 360° |
| 2026-04-27 15:42 | -27.15348 | 146.36260 | 10732 ft | 235 kts | 360° |
| 2026-04-27 15:43 | -27.13720 | 146.36155 | 10729 ft | 235 kts | 360° |
| 2026-04-27 15:43 | -27.12088 | 146.36051 | 10730 ft | 235 kts | 360° |
| 2026-04-27 15:43 | -27.10461 | 146.35947 | 10728 ft | 235 kts | 360° |
| 2026-04-27 15:43 | -27.08830 | 146.35843 | 10728 ft | 235 kts | 360° |
| 2026-04-27 15:44 | -27.07199 | 146.35739 | 10727 ft | 235 kts | 360° |
| 2026-04-27 15:44 | -27.05572 | 146.35635 | 10726 ft | 234 kts | 360° |
| 2026-04-27 15:44 | -27.03942 | 146.35531 | 10726 ft | 234 kts | 360° |
| 2026-04-27 15:44 | -27.02315 | 146.35427 | 10728 ft | 235 kts | 360° |
| 2026-04-27 15:45 | -27.00683 | 146.35323 | 10726 ft | 235 kts | 360° |
| 2026-04-27 15:45 | -26.99076 | 146.35220 | 10724 ft | 235 kts | 360° |
| 2026-04-27 15:45 | -26.97447 | 146.35117 | 10727 ft | 235 kts | 360° |
| 2026-04-27 15:45 | -26.95814 | 146.35013 | 10728 ft | 235 kts | 360° |
| 2026-04-27 15:46 | -26.94184 | 146.34908 | 10727 ft | 235 kts | 360° |
| 2026-04-27 15:46 | -26.92548 | 146.34805 | 10724 ft | 235 kts | 360° |
| 2026-04-27 15:46 | -26.90916 | 146.34701 | 10726 ft | 235 kts | 360° |
| 2026-04-27 15:46 | -26.89281 | 146.34596 | 10725 ft | 235 kts | 360° |
| 2026-04-27 15:47 | -26.87647 | 146.34492 | 10724 ft | 235 kts | 360° |
| 2026-04-27 15:47 | -26.86039 | 146.34390 | 10723 ft | 235 kts | 360° |
| 2026-04-27 15:47 | -26.84407 | 146.34286 | 10725 ft | 235 kts | 360° |
| 2026-04-27 15:47 | -26.82769 | 146.34182 | 10723 ft | 236 kts | 360° |
| 2026-04-27 15:48 | -26.81133 | 146.34078 | 10719 ft | 236 kts | 360° |
| 2026-04-27 15:48 | -26.79494 | 146.33974 | 10721 ft | 236 kts | 360° |
| 2026-04-27 15:48 | -26.77860 | 146.33870 | 10721 ft | 235 kts | 360° |
| 2026-04-27 15:49 | -26.74587 | 146.33662 | 10720 ft | 235 kts | 360° |
| 2026-04-27 15:49 | -26.72954 | 146.33558 | 10721 ft | 235 kts | 360° |
| 2026-04-27 15:49 | -26.71340 | 146.33456 | 10719 ft | 235 kts | 360° |
| 2026-04-27 15:49 | -26.69706 | 146.33353 | 10720 ft | 235 kts | 360° |
| 2026-04-27 15:50 | -26.68073 | 146.33249 | 10719 ft | 235 kts | 360° |
| 2026-04-27 15:50 | -26.66436 | 146.33145 | 10719 ft | 235 kts | 360° |
| 2026-04-27 15:50 | -26.64798 | 146.33041 | 10721 ft | 236 kts | 360° |
| 2026-04-27 15:50 | -26.63163 | 146.32937 | 10716 ft | 236 kts | 360° |
| 2026-04-27 15:51 | -26.61524 | 146.32834 | 10720 ft | 236 kts | 360° |
| 2026-04-27 15:51 | -26.59887 | 146.32730 | 10719 ft | 236 kts | 360° |
| 2026-04-27 15:51 | -26.58248 | 146.32626 | 10720 ft | 236 kts | 360° |
| 2026-04-27 15:51 | -26.56633 | 146.32524 | 10719 ft | 236 kts | 360° |
| 2026-04-27 15:52 | -26.54993 | 146.32420 | 10721 ft | 236 kts | 360° |
| 2026-04-27 15:52 | -26.53356 | 146.32316 | 10718 ft | 236 kts | 360° |
| 2026-04-27 15:52 | -26.51717 | 146.32213 | 10719 ft | 236 kts | 360° |
| 2026-04-27 15:52 | -26.50081 | 146.32109 | 10719 ft | 236 kts | 360° |
| 2026-04-27 15:53 | -26.48441 | 146.32006 | 10722 ft | 236 kts | 360° |
| 2026-04-27 15:53 | -26.46805 | 146.31902 | 10717 ft | 236 kts | 360° |
| 2026-04-27 15:53 | -26.45164 | 146.31799 | 10717 ft | 236 kts | 359° |
| 2026-04-27 15:53 | -26.43525 | 146.31695 | 10718 ft | 236 kts | 359° |
| 2026-04-27 15:54 | -26.41905 | 146.31593 | 10718 ft | 236 kts | 359° |
| 2026-04-27 15:54 | -26.40267 | 146.31490 | 10719 ft | 236 kts | 359° |
| 2026-04-27 15:54 | -26.38626 | 146.31386 | 10718 ft | 236 kts | 359° |
| 2026-04-27 15:54 | -26.36988 | 146.31282 | 10719 ft | 236 kts | 359° |
| 2026-04-27 15:55 | -26.35347 | 146.31179 | 10721 ft | 236 kts | 359° |
| 2026-04-27 15:55 | -26.33708 | 146.31076 | 10719 ft | 236 kts | 359° |
| 2026-04-27 15:55 | -26.32064 | 146.30972 | 10718 ft | 236 kts | 359° |
| 2026-04-27 15:55 | -26.30424 | 146.30869 | 10717 ft | 236 kts | 359° |
| 2026-04-27 15:56 | -26.28801 | 146.30766 | 10718 ft | 237 kts | 359° |
| 2026-04-27 15:56 | -26.27159 | 146.30663 | 10720 ft | 237 kts | 359° |
| 2026-04-27 15:56 | -26.25514 | 146.30560 | 10719 ft | 237 kts | 359° |
| 2026-04-27 15:56 | -26.23873 | 146.30456 | 10719 ft | 237 kts | 359° |
| 2026-04-27 15:57 | -26.22227 | 146.30353 | 10720 ft | 237 kts | 359° |
| 2026-04-27 15:57 | -26.20585 | 146.30250 | 10716 ft | 237 kts | 359° |
| 2026-04-27 15:57 | -26.18939 | 146.30146 | 10719 ft | 236 kts | 359° |
| 2026-04-27 15:57 | -26.17300 | 146.30043 | 10718 ft | 236 kts | 359° |
| 2026-04-27 15:58 | -26.15658 | 146.29940 | 10720 ft | 236 kts | 359° |
| 2026-04-27 15:58 | -26.14020 | 146.29836 | 10718 ft | 236 kts | 359° |
| 2026-04-27 15:58 | -26.12399 | 146.29735 | 10722 ft | 236 kts | 359° |
| 2026-04-27 15:58 | -26.10759 | 146.29632 | 10719 ft | 236 kts | 359° |
| 2026-04-27 15:59 | -26.09115 | 146.29528 | 10717 ft | 236 kts | 359° |
| 2026-04-27 15:59 | -26.07477 | 146.29426 | 10716 ft | 236 kts | 359° |
| 2026-04-27 15:59 | -26.05836 | 146.29322 | 10716 ft | 236 kts | 359° |
| 2026-04-27 15:59 | -26.04199 | 146.29220 | 10715 ft | 236 kts | 359° |
| 2026-04-27 16:00 | -26.02557 | 146.29117 | 10714 ft | 236 kts | 359° |
| 2026-04-27 16:00 | -26.00919 | 146.29014 | 10714 ft | 236 kts | 359° |
| 2026-04-27 16:00 | -25.99299 | 146.28912 | 10713 ft | 236 kts | 359° |
| 2026-04-27 16:00 | -25.97661 | 146.28810 | 10711 ft | 236 kts | 359° |
| 2026-04-27 16:01 | -25.96019 | 146.28708 | 10710 ft | 236 kts | 359° |
| 2026-04-27 16:01 | -25.94381 | 146.28604 | 10714 ft | 236 kts | 359° |
| 2026-04-27 16:01 | -25.92740 | 146.28502 | 10713 ft | 236 kts | 359° |
| 2026-04-27 16:01 | -25.91102 | 146.28400 | 10711 ft | 236 kts | 359° |
| 2026-04-27 16:02 | -25.89462 | 146.28297 | 10713 ft | 236 kts | 359° |
| 2026-04-27 16:02 | -25.87827 | 146.28194 | 10709 ft | 236 kts | 359° |
| 2026-04-27 16:02 | -25.86189 | 146.28092 | 10710 ft | 236 kts | 359° |
| 2026-04-27 16:02 | -25.84553 | 146.27990 | 10710 ft | 236 kts | 359° |
| 2026-04-27 16:03 | -25.82935 | 146.27897 | 10708 ft | 236 kts | 360° |
| 2026-04-27 16:03 | -25.81298 | 146.27797 | 10710 ft | 236 kts | 358° |
| 2026-04-27 16:03 | -25.79660 | 146.27677 | 10710 ft | 235 kts | 359° |
| 2026-04-27 16:03 | -25.78027 | 146.27577 | 10713 ft | 235 kts | 359° |
| 2026-04-27 16:04 | -25.76390 | 146.27479 | 10711 ft | 236 kts | 359° |
| 2026-04-27 16:04 | -25.74755 | 146.27374 | 10712 ft | 236 kts | 359° |
| 2026-04-27 16:04 | -25.73118 | 146.27273 | 10708 ft | 235 kts | 359° |
| 2026-04-27 16:04 | -25.71486 | 146.27173 | 10709 ft | 235 kts | 359° |
| 2026-04-27 16:05 | -25.69873 | 146.27073 | 10706 ft | 235 kts | 359° |
| 2026-04-27 16:05 | -25.68243 | 146.26971 | 10702 ft | 235 kts | 359° |
| 2026-04-27 16:05 | -25.66609 | 146.26869 | 10702 ft | 235 kts | 359° |
| 2026-04-27 16:05 | -25.64977 | 146.26768 | 10706 ft | 235 kts | 359° |
| 2026-04-27 16:06 | -25.63341 | 146.26666 | 10706 ft | 235 kts | 359° |
| 2026-04-27 16:06 | -25.61705 | 146.26564 | 10706 ft | 235 kts | 359° |
| 2026-04-27 16:06 | -25.60073 | 146.26462 | 10704 ft | 235 kts | 359° |
| 2026-04-27 16:06 | -25.58442 | 146.26361 | 10705 ft | 235 kts | 359° |
| 2026-04-27 16:07 | -25.56808 | 146.26259 | 10705 ft | 235 kts | 359° |
| 2026-04-27 16:07 | -25.55177 | 146.26158 | 10704 ft | 235 kts | 359° |
| 2026-04-27 16:07 | -25.53564 | 146.26057 | 10702 ft | 235 kts | 359° |
| 2026-04-27 16:07 | -25.51933 | 146.25956 | 10703 ft | 235 kts | 359° |
| 2026-04-27 16:08 | -25.50296 | 146.25855 | 10707 ft | 235 kts | 359° |
| 2026-04-27 16:08 | -25.48663 | 146.25752 | 10710 ft | 235 kts | 359° |
| 2026-04-27 16:08 | -25.47026 | 146.25651 | 10705 ft | 235 kts | 359° |
| 2026-04-27 16:08 | -25.45393 | 146.25550 | 10703 ft | 235 kts | 359° |
| 2026-04-27 16:09 | -25.43757 | 146.25448 | 10707 ft | 235 kts | 359° |
| 2026-04-27 16:09 | -25.40487 | 146.25245 | 10704 ft | 236 kts | 359° |
| 2026-04-27 16:09 | -25.38852 | 146.25144 | 10701 ft | 236 kts | 359° |
| 2026-04-27 16:10 | -25.35595 | 146.24942 | 10701 ft | 236 kts | 359° |
| 2026-04-27 16:10 | -25.32319 | 146.24739 | 10705 ft | 236 kts | 359° |
| 2026-04-27 16:11 | -25.30683 | 146.24637 | 10706 ft | 236 kts | 358° |
| 2026-04-27 16:11 | -25.27406 | 146.24434 | 10703 ft | 236 kts | 358° |
| 2026-04-27 16:12 | -25.24153 | 146.24233 | 10703 ft | 236 kts | 358° |
| 2026-04-27 16:12 | -25.22490 | 146.24130 | 10702 ft | 236 kts | 358° |
| 2026-04-27 16:12 | -25.19229 | 146.23928 | 10698 ft | 237 kts | 358° |
| 2026-04-27 16:13 | -25.17583 | 146.23827 | 10700 ft | 236 kts | 359° |
| 2026-04-27 16:13 | -25.14302 | 146.23624 | 10701 ft | 236 kts | 358° |
| 2026-04-27 16:13 | -25.12663 | 146.23522 | 10699 ft | 236 kts | 358° |
| 2026-04-27 16:14 | -25.09373 | 146.23319 | 10697 ft | 237 kts | 358° |
| 2026-04-27 16:14 | -25.06098 | 146.23117 | 10695 ft | 237 kts | 358° |
| 2026-04-27 16:15 | -25.02809 | 146.22914 | 10694 ft | 237 kts | 358° |
| 2026-04-27 16:15 | -24.99521 | 146.22711 | 10695 ft | 237 kts | 358° |
| 2026-04-27 16:16 | -24.96229 | 146.22508 | 10693 ft | 236 kts | 358° |
| 2026-04-27 16:16 | -24.92965 | 146.22308 | 10692 ft | 237 kts | 358° |
| 2026-04-27 16:17 | -24.89674 | 146.22105 | 10697 ft | 237 kts | 358° |
| 2026-04-27 16:17 | -24.86386 | 146.21902 | 10692 ft | 236 kts | 358° |
| 2026-04-27 16:18 | -24.83101 | 146.21700 | 10694 ft | 237 kts | 358° |
| 2026-04-27 16:18 | -24.79837 | 146.21500 | 10695 ft | 237 kts | 358° |
| 2026-04-27 16:19 | -24.78195 | 146.21399 | 10689 ft | 237 kts | 358° |
| 2026-04-27 16:19 | -24.76549 | 146.21298 | 10686 ft | 237 kts | 358° |
| 2026-04-27 16:20 | -24.71624 | 146.20996 | 10693 ft | 236 kts | 358° |
| 2026-04-27 16:20 | -24.69982 | 146.20895 | 10693 ft | 236 kts | 358° |
| 2026-04-27 16:20 | -24.66697 | 146.20693 | 10689 ft | 236 kts | 358° |
| 2026-04-27 16:21 | -24.65081 | 146.20595 | 10691 ft | 236 kts | 358° |
| 2026-04-27 16:21 | -24.60166 | 146.20294 | 10693 ft | 236 kts | 358° |
| 2026-04-27 16:22 | -24.58524 | 146.20192 | 10692 ft | 236 kts | 358° |
| 2026-04-27 16:22 | -24.55247 | 146.19992 | 10691 ft | 236 kts | 358° |
| 2026-04-27 16:22 | -24.53608 | 146.19892 | 10691 ft | 236 kts | 358° |
| 2026-04-27 16:23 | -24.51973 | 146.19792 | 10688 ft | 236 kts | 358° |
| 2026-04-27 16:23 | -24.48720 | 146.19593 | 10688 ft | 236 kts | 358° |
| 2026-04-27 16:23 | -24.47081 | 146.19493 | 10688 ft | 236 kts | 358° |
| 2026-04-27 16:24 | -24.45447 | 146.19393 | 10689 ft | 235 kts | 358° |
| 2026-04-27 16:24 | -24.42175 | 146.19193 | 10691 ft | 236 kts | 358° |
| 2026-04-27 16:25 | -24.38903 | 146.18993 | 10691 ft | 235 kts | 358° |
| 2026-04-27 16:25 | -24.35653 | 146.18795 | 10689 ft | 236 kts | 358° |
| 2026-04-27 16:26 | -24.32379 | 146.18596 | 10690 ft | 236 kts | 358° |
| 2026-04-27 16:26 | -24.29107 | 146.18395 | 10684 ft | 236 kts | 358° |
| 2026-04-27 16:27 | -24.25833 | 146.18196 | 10683 ft | 235 kts | 358° |
| 2026-04-27 16:27 | -24.20948 | 146.17898 | 10683 ft | 235 kts | 358° |
| 2026-04-27 16:28 | -24.17674 | 146.17700 | 10684 ft | 236 kts | 358° |
| 2026-04-27 16:28 | -24.14405 | 146.17500 | 10681 ft | 235 kts | 358° |
| 2026-04-27 16:29 | -24.09523 | 146.17204 | 10684 ft | 235 kts | 358° |
| 2026-04-27 16:30 | -24.06262 | 146.17006 | 10682 ft | 235 kts | 358° |
| 2026-04-27 16:30 | -24.02992 | 146.16807 | 10683 ft | 236 kts | 358° |
| 2026-04-27 16:31 | -23.98112 | 146.16512 | 10677 ft | 235 kts | 358° |
| 2026-04-27 16:31 | -23.94840 | 146.16312 | 10678 ft | 235 kts | 358° |
| 2026-04-27 16:32 | -23.91576 | 146.16115 | 10673 ft | 235 kts | 358° |
| 2026-04-27 16:32 | -23.89945 | 146.16016 | 10675 ft | 235 kts | 358° |
| 2026-04-27 16:33 | -23.86674 | 146.15818 | 10677 ft | 235 kts | 358° |
| 2026-04-27 16:33 | -23.85038 | 146.15719 | 10677 ft | 235 kts | 358° |
| 2026-04-27 16:33 | -23.83408 | 146.15621 | 10675 ft | 235 kts | 358° |
| 2026-04-27 16:33 | -23.81795 | 146.15522 | 10673 ft | 235 kts | 358° |
| 2026-04-27 16:34 | -23.80163 | 146.15424 | 10673 ft | 235 kts | 358° |
| 2026-04-27 16:34 | -23.78528 | 146.15326 | 10674 ft | 235 kts | 358° |
| 2026-04-27 16:34 | -23.76897 | 146.15226 | 10673 ft | 235 kts | 358° |
| 2026-04-27 16:34 | -23.75262 | 146.15127 | 10669 ft | 235 kts | 358° |
| 2026-04-27 16:35 | -23.73629 | 146.15030 | 10672 ft | 235 kts | 358° |
| 2026-04-27 16:35 | -23.71992 | 146.14930 | 10673 ft | 235 kts | 358° |
| 2026-04-27 16:35 | -23.68746 | 146.14735 | 10669 ft | 235 kts | 358° |
| 2026-04-27 16:36 | -23.67114 | 146.14637 | 10672 ft | 235 kts | 358° |
| 2026-04-27 16:36 | -23.65478 | 146.14535 | 10672 ft | 235 kts | 358° |
| 2026-04-27 16:36 | -23.63845 | 146.14438 | 10667 ft | 235 kts | 358° |
| 2026-04-27 16:36 | -23.62209 | 146.14341 | 10666 ft | 235 kts | 358° |
| 2026-04-27 16:37 | -23.60575 | 146.14240 | 10669 ft | 236 kts | 358° |
| 2026-04-27 16:37 | -23.58937 | 146.14142 | 10668 ft | 236 kts | 358° |
| 2026-04-27 16:37 | -23.57302 | 146.14043 | 10670 ft | 236 kts | 358° |
| 2026-04-27 16:37 | -23.55686 | 146.13947 | 10668 ft | 235 kts | 358° |
| 2026-04-27 16:38 | -23.54052 | 146.13848 | 10668 ft | 235 kts | 358° |
| 2026-04-27 16:38 | -23.52418 | 146.13749 | 10666 ft | 235 kts | 358° |
| 2026-04-27 16:38 | -23.50786 | 146.13651 | 10666 ft | 235 kts | 358° |
| 2026-04-27 16:38 | -23.49150 | 146.13552 | 10666 ft | 235 kts | 358° |
| 2026-04-27 16:39 | -23.47518 | 146.13455 | 10666 ft | 235 kts | 357° |
| 2026-04-27 16:39 | -23.45882 | 146.13356 | 10663 ft | 235 kts | 358° |
| 2026-04-27 16:39 | -23.44252 | 146.13257 | 10664 ft | 235 kts | 357° |
| 2026-04-27 16:39 | -23.42621 | 146.13160 | 10661 ft | 235 kts | 357° |
| 2026-04-27 16:40 | -23.41014 | 146.13064 | 10661 ft | 235 kts | 357° |
| 2026-04-27 16:40 | -23.39381 | 146.12965 | 10664 ft | 235 kts | 357° |
| 2026-04-27 16:40 | -23.37746 | 146.12867 | 10664 ft | 235 kts | 357° |
| 2026-04-27 16:40 | -23.36118 | 146.12769 | 10666 ft | 234 kts | 357° |
| 2026-04-27 16:41 | -23.34488 | 146.12671 | 10662 ft | 234 kts | 357° |
| 2026-04-27 16:41 | -23.32861 | 146.12573 | 10661 ft | 234 kts | 357° |
| 2026-04-27 16:41 | -23.31233 | 146.12476 | 10660 ft | 235 kts | 357° |
| 2026-04-27 16:41 | -23.29601 | 146.12377 | 10662 ft | 235 kts | 357° |
| 2026-04-27 16:42 | -23.27992 | 146.12281 | 10664 ft | 235 kts | 357° |
| 2026-04-27 16:42 | -23.26359 | 146.12184 | 10664 ft | 235 kts | 357° |
| 2026-04-27 16:42 | -23.24731 | 146.12085 | 10662 ft | 235 kts | 357° |
| 2026-04-27 16:42 | -23.23100 | 146.11987 | 10661 ft | 235 kts | 357° |
| 2026-04-27 16:43 | -23.21472 | 146.11890 | 10665 ft | 235 kts | 357° |
| 2026-04-27 16:43 | -23.19841 | 146.11792 | 10664 ft | 235 kts | 357° |
| 2026-04-27 16:43 | -23.18213 | 146.11695 | 10667 ft | 235 kts | 357° |
| 2026-04-27 16:43 | -23.16581 | 146.11597 | 10664 ft | 235 kts | 357° |
| 2026-04-27 16:44 | -23.14953 | 146.11499 | 10663 ft | 235 kts | 357° |
| 2026-04-27 16:44 | -23.13342 | 146.11402 | 10663 ft | 235 kts | 357° |
| 2026-04-27 16:44 | -23.11712 | 146.11306 | 10660 ft | 235 kts | 357° |
| 2026-04-27 16:44 | -23.10078 | 146.11207 | 10661 ft | 235 kts | 357° |
| 2026-04-27 16:45 | -23.08448 | 146.11110 | 10659 ft | 235 kts | 357° |
| 2026-04-27 16:45 | -23.06815 | 146.11013 | 10657 ft | 235 kts | 357° |
| 2026-04-27 16:45 | -23.05183 | 146.10914 | 10658 ft | 235 kts | 357° |
| 2026-04-27 16:45 | -23.03554 | 146.10817 | 10657 ft | 235 kts | 357° |
| 2026-04-27 16:46 | -23.01924 | 146.10720 | 10658 ft | 235 kts | 357° |
| 2026-04-27 16:46 | -23.00311 | 146.10623 | 10659 ft | 235 kts | 357° |
| 2026-04-27 16:46 | -22.98679 | 146.10526 | 10658 ft | 235 kts | 357° |
| 2026-04-27 16:46 | -22.97044 | 146.10429 | 10654 ft | 235 kts | 357° |
| 2026-04-27 16:47 | -22.95413 | 146.10331 | 10659 ft | 235 kts | 357° |
| 2026-04-27 16:47 | -22.93779 | 146.10233 | 10658 ft | 235 kts | 357° |
| 2026-04-27 16:47 | -22.92149 | 146.10136 | 10659 ft | 235 kts | 357° |
| 2026-04-27 16:47 | -22.90515 | 146.10039 | 10656 ft | 235 kts | 357° |
| 2026-04-27 16:48 | -22.88887 | 146.09941 | 10657 ft | 235 kts | 357° |
| 2026-04-27 16:48 | -22.87254 | 146.09843 | 10655 ft | 235 kts | 357° |
| 2026-04-27 16:48 | -22.85645 | 146.09748 | 10654 ft | 235 kts | 357° |
| 2026-04-27 16:49 | -22.82380 | 146.09553 | 10656 ft | 235 kts | 357° |
| 2026-04-27 16:49 | -22.80746 | 146.09456 | 10655 ft | 235 kts | 357° |
| 2026-04-27 16:49 | -22.79116 | 146.09359 | 10659 ft | 235 kts | 357° |
| 2026-04-27 16:49 | -22.77482 | 146.09261 | 10655 ft | 235 kts | 357° |
| 2026-04-27 16:50 | -22.75852 | 146.09164 | 10653 ft | 235 kts | 357° |
| 2026-04-27 16:50 | -22.74219 | 146.09067 | 10653 ft | 235 kts | 357° |
| 2026-04-27 16:50 | -22.72586 | 146.08970 | 10655 ft | 235 kts | 357° |
| 2026-04-27 16:50 | -22.70976 | 146.08874 | 10655 ft | 235 kts | 357° |
| 2026-04-27 16:51 | -22.69342 | 146.08777 | 10655 ft | 236 kts | 357° |
| 2026-04-27 16:51 | -22.67704 | 146.08680 | 10654 ft | 235 kts | 357° |
| 2026-04-27 16:51 | -22.66070 | 146.08582 | 10654 ft | 235 kts | 357° |
| 2026-04-27 16:51 | -22.64433 | 146.08485 | 10651 ft | 235 kts | 357° |
| 2026-04-27 16:52 | -22.62802 | 146.08388 | 10652 ft | 235 kts | 357° |
| 2026-04-27 16:52 | -22.61168 | 146.08291 | 10652 ft | 235 kts | 357° |
| 2026-04-27 16:52 | -22.59538 | 146.08194 | 10649 ft | 235 kts | 357° |
| 2026-04-27 16:52 | -22.57903 | 146.08097 | 10651 ft | 235 kts | 357° |
| 2026-04-27 16:53 | -22.56268 | 146.08001 | 10649 ft | 235 kts | 357° |
| 2026-04-27 16:53 | -22.54638 | 146.07903 | 10647 ft | 235 kts | 357° |
| 2026-04-27 16:53 | -22.53025 | 146.07808 | 10649 ft | 235 kts | 357° |
| 2026-04-27 16:53 | -22.51393 | 146.07711 | 10649 ft | 235 kts | 357° |
| 2026-04-27 16:54 | -22.49758 | 146.07615 | 10650 ft | 235 kts | 357° |
| 2026-04-27 16:54 | -22.48128 | 146.07516 | 10650 ft | 235 kts | 357° |
| 2026-04-27 16:54 | -22.46491 | 146.07420 | 10652 ft | 236 kts | 357° |
| 2026-04-27 16:54 | -22.44856 | 146.07323 | 10648 ft | 236 kts | 357° |
| 2026-04-27 16:55 | -22.43218 | 146.07226 | 10649 ft | 235 kts | 357° |
| 2026-04-27 16:55 | -22.41583 | 146.07129 | 10648 ft | 236 kts | 357° |
| 2026-04-27 16:55 | -22.39966 | 146.07033 | 10649 ft | 236 kts | 357° |
| 2026-04-27 16:55 | -22.38330 | 146.06936 | 10648 ft | 236 kts | 357° |
| 2026-04-27 16:56 | -22.36694 | 146.06841 | 10647 ft | 236 kts | 357° |
| 2026-04-27 16:56 | -22.35055 | 146.06742 | 10644 ft | 236 kts | 357° |
| 2026-04-27 16:56 | -22.33416 | 146.06645 | 10643 ft | 236 kts | 357° |
| 2026-04-27 16:56 | -22.31781 | 146.06549 | 10647 ft | 235 kts | 357° |
| 2026-04-27 16:57 | -22.30145 | 146.06453 | 10645 ft | 235 kts | 357° |
| 2026-04-27 16:57 | -22.28515 | 146.06355 | 10643 ft | 235 kts | 357° |
| 2026-04-27 16:57 | -22.26902 | 146.06260 | 10643 ft | 235 kts | 357° |
| 2026-04-27 16:57 | -22.25270 | 146.06164 | 10643 ft | 235 kts | 357° |
| 2026-04-27 16:58 | -22.23634 | 146.06067 | 10643 ft | 235 kts | 357° |
| 2026-04-27 16:58 | -22.22003 | 146.05971 | 10643 ft | 235 kts | 357° |
| 2026-04-27 16:58 | -22.20369 | 146.05874 | 10640 ft | 235 kts | 357° |
| 2026-04-27 16:58 | -22.18736 | 146.05778 | 10642 ft | 235 kts | 357° |
| 2026-04-27 16:59 | -22.17101 | 146.05682 | 10644 ft | 235 kts | 357° |
| 2026-04-27 16:59 | -22.15470 | 146.05585 | 10642 ft | 235 kts | 357° |
| 2026-04-27 16:59 | -22.13836 | 146.05488 | 10644 ft | 235 kts | 357° |
| 2026-04-27 16:59 | -22.12225 | 146.05393 | 10647 ft | 235 kts | 357° |
| 2026-04-27 17:00 | -22.09497 | 146.05232 | 10642 ft | 235 kts | 357° |
| 2026-04-27 17:00 | -22.07333 | 146.05105 | 10645 ft | 235 kts | 357° |
| 2026-04-27 17:00 | -22.05700 | 146.05009 | 10641 ft | 235 kts | 357° |
| 2026-04-27 17:01 | -22.04064 | 146.04912 | 10643 ft | 235 kts | 357° |
| 2026-04-27 17:01 | -22.02433 | 146.04816 | 10641 ft | 235 kts | 357° |
| 2026-04-27 17:01 | -22.00800 | 146.04720 | 10643 ft | 235 kts | 357° |
| 2026-04-27 17:01 | -21.99169 | 146.04624 | 10639 ft | 235 kts | 357° |
| 2026-04-27 17:02 | -21.97533 | 146.04527 | 10640 ft | 235 kts | 357° |
| 2026-04-27 17:02 | -21.95902 | 146.04431 | 10642 ft | 235 kts | 357° |
| 2026-04-27 17:02 | -21.94289 | 146.04337 | 10637 ft | 235 kts | 357° |
| 2026-04-27 17:02 | -21.92658 | 146.04241 | 10635 ft | 235 kts | 357° |
| 2026-04-27 17:03 | -21.91024 | 146.04134 | 10638 ft | 235 kts | 356° |
| 2026-04-27 17:03 | -21.89392 | 146.04040 | 10639 ft | 235 kts | 358° |
| 2026-04-27 17:03 | -21.87756 | 146.03961 | 10640 ft | 235 kts | 357° |
| 2026-04-27 17:03 | -21.86125 | 146.03860 | 10640 ft | 235 kts | 357° |
| 2026-04-27 17:04 | -21.84491 | 146.03761 | 10643 ft | 235 kts | 357° |
| 2026-04-27 17:04 | -21.82858 | 146.03668 | 10638 ft | 235 kts | 357° |
| 2026-04-27 17:04 | -21.81244 | 146.03572 | 10640 ft | 235 kts | 357° |
| 2026-04-27 17:04 | -21.79613 | 146.03474 | 10636 ft | 235 kts | 357° |
| 2026-04-27 17:05 | -21.77979 | 146.03378 | 10636 ft | 235 kts | 357° |
| 2026-04-27 17:05 | -21.76348 | 146.03283 | 10634 ft | 235 kts | 357° |
| 2026-04-27 17:05 | -21.74712 | 146.03187 | 10638 ft | 235 kts | 358° |
| 2026-04-27 17:05 | -21.73631 | 146.03123 | 10639 ft | 235 kts | 357° |
| 2026-04-27 17:06 | -21.71444 | 146.02994 | 10633 ft | 235 kts | 357° |
| 2026-04-27 17:06 | -21.69811 | 146.02898 | 10634 ft | 235 kts | 358° |
| 2026-04-27 17:06 | -21.68173 | 146.02803 | 10633 ft | 236 kts | 357° |
| 2026-04-27 17:06 | -21.66539 | 146.02707 | 10633 ft | 235 kts | 358° |
| 2026-04-27 17:07 | -21.64925 | 146.02612 | 10631 ft | 235 kts | 358° |
| 2026-04-27 17:07 | -21.63291 | 146.02517 | 10630 ft | 236 kts | 358° |
| 2026-04-27 17:07 | -21.61652 | 146.02420 | 10631 ft | 236 kts | 357° |
| 2026-04-27 17:07 | -21.60017 | 146.02325 | 10631 ft | 236 kts | 358° |
| 2026-04-27 17:08 | -21.58378 | 146.02228 | 10635 ft | 236 kts | 358° |
| 2026-04-27 17:08 | -21.56736 | 146.02132 | 10630 ft | 236 kts | 358° |
| 2026-04-27 17:08 | -21.55100 | 146.02037 | 10632 ft | 236 kts | 358° |
| 2026-04-27 17:08 | -21.53461 | 146.01940 | 10631 ft | 236 kts | 358° |
| 2026-04-27 17:09 | -21.51846 | 146.01845 | 10627 ft | 236 kts | 358° |
| 2026-04-27 17:09 | -21.50207 | 146.01751 | 10626 ft | 236 kts | 358° |
| 2026-04-27 17:09 | -21.48566 | 146.01654 | 10630 ft | 236 kts | 358° |
| 2026-04-27 17:09 | -21.46927 | 146.01558 | 10630 ft | 236 kts | 358° |
| 2026-04-27 17:10 | -21.45283 | 146.01462 | 10630 ft | 236 kts | 358° |
| 2026-04-27 17:10 | -21.43643 | 146.01366 | 10632 ft | 236 kts | 358° |
| 2026-04-27 17:10 | -21.42000 | 146.01271 | 10631 ft | 236 kts | 358° |
| 2026-04-27 17:10 | -21.40361 | 146.01176 | 10629 ft | 236 kts | 358° |
| 2026-04-27 17:11 | -21.38719 | 146.01079 | 10629 ft | 236 kts | 358° |
| 2026-04-27 17:11 | -21.35464 | 146.00890 | 10626 ft | 236 kts | 358° |
| 2026-04-27 17:11 | -21.33827 | 146.00794 | 10627 ft | 236 kts | 358° |
| 2026-04-27 17:12 | -21.30552 | 146.00602 | 10623 ft | 236 kts | 358° |
| 2026-04-27 17:12 | -21.28913 | 146.00508 | 10622 ft | 236 kts | 358° |
| 2026-04-27 17:12 | -21.27277 | 146.00411 | 10625 ft | 236 kts | 358° |
| 2026-04-27 17:13 | -21.25639 | 146.00315 | 10623 ft | 235 kts | 358° |
| 2026-04-27 17:13 | -21.24007 | 146.00221 | 10624 ft | 235 kts | 358° |
| 2026-04-27 17:13 | -21.22369 | 146.00126 | 10622 ft | 235 kts | 358° |
| 2026-04-27 17:13 | -21.20731 | 146.00030 | 10623 ft | 235 kts | 358° |
| 2026-04-27 17:14 | -21.19121 | 145.99935 | 10622 ft | 235 kts | 358° |
| 2026-04-27 17:14 | -21.17490 | 145.99841 | 10625 ft | 235 kts | 358° |
| 2026-04-27 17:14 | -21.15855 | 145.99746 | 10622 ft | 235 kts | 358° |
| 2026-04-27 17:14 | -21.14224 | 145.99650 | 10605 ft | 235 kts | 358° |
| 2026-04-27 17:15 | -21.12596 | 145.99555 | 10614 ft | 234 kts | 359° |
| 2026-04-27 17:15 | -21.10972 | 145.99464 | 10618 ft | 234 kts | 358° |
| 2026-04-27 17:15 | -21.09343 | 145.99367 | 10622 ft | 234 kts | 358° |
| 2026-04-27 17:15 | -21.07718 | 145.99272 | 10625 ft | 234 kts | 358° |
| 2026-04-27 17:16 | -21.06111 | 145.99179 | 10621 ft | 234 kts | 358° |
| 2026-04-27 17:16 | -21.04488 | 145.99085 | 10622 ft | 234 kts | 358° |
| 2026-04-27 17:16 | -21.02862 | 145.98990 | 10620 ft | 234 kts | 358° |
| 2026-04-27 17:16 | -21.01241 | 145.98896 | 10620 ft | 234 kts | 358° |
| 2026-04-27 17:17 | -20.99617 | 145.98801 | 10622 ft | 233 kts | 358° |
| 2026-04-27 17:17 | -20.97994 | 145.98708 | 10620 ft | 233 kts | 358° |
| 2026-04-27 17:17 | -20.96375 | 145.98614 | 10619 ft | 233 kts | 358° |
| 2026-04-27 17:18 | -20.93135 | 145.98425 | 10619 ft | 233 kts | 358° |
| 2026-04-27 17:18 | -20.91519 | 145.98331 | 10619 ft | 233 kts | 358° |
| 2026-04-27 17:18 | -20.89923 | 145.98240 | 10617 ft | 233 kts | 358° |
| 2026-04-27 17:18 | -20.88308 | 145.98145 | 10618 ft | 233 kts | 358° |
| 2026-04-27 17:19 | -20.86691 | 145.98050 | 10619 ft | 232 kts | 358° |
| 2026-04-27 17:19 | -20.85078 | 145.97959 | 10621 ft | 232 kts | 359° |
| 2026-04-27 17:19 | -20.83460 | 145.97864 | 10620 ft | 233 kts | 358° |
| 2026-04-27 17:19 | -20.81843 | 145.97770 | 10616 ft | 233 kts | 358° |
| 2026-04-27 17:20 | -20.80229 | 145.97678 | 10615 ft | 232 kts | 358° |
| 2026-04-27 17:20 | -20.78617 | 145.97583 | 10619 ft | 232 kts | 358° |
| 2026-04-27 17:20 | -20.77002 | 145.97489 | 10619 ft | 232 kts | 358° |
| 2026-04-27 17:20 | -20.75390 | 145.97396 | 10615 ft | 232 kts | 358° |
| 2026-04-27 17:21 | -20.73802 | 145.97306 | 10616 ft | 232 kts | 358° |
| 2026-04-27 17:21 | -20.72189 | 145.97211 | 10617 ft | 232 kts | 358° |
| 2026-04-27 17:21 | -20.70582 | 145.97118 | 10614 ft | 232 kts | 358° |
| 2026-04-27 17:21 | -20.68975 | 145.97026 | 10613 ft | 232 kts | 359° |
| 2026-04-27 17:22 | -20.67364 | 145.96932 | 10616 ft | 231 kts | 358° |
| 2026-04-27 17:22 | -20.65754 | 145.96839 | 10613 ft | 231 kts | 358° |
| 2026-04-27 17:22 | -20.64150 | 145.96745 | 10610 ft | 231 kts | 358° |
| 2026-04-27 17:22 | -20.62544 | 145.96654 | 10610 ft | 231 kts | 358° |
| 2026-04-27 17:23 | -20.60965 | 145.96563 | 10615 ft | 231 kts | 358° |
| 2026-04-27 17:23 | -20.59365 | 145.96470 | 10612 ft | 231 kts | 358° |
| 2026-04-27 17:23 | -20.57761 | 145.96377 | 10614 ft | 231 kts | 358° |
| 2026-04-27 17:23 | -20.56157 | 145.96285 | 10617 ft | 231 kts | 358° |
| 2026-04-27 17:24 | -20.54557 | 145.96192 | 10613 ft | 230 kts | 358° |
| 2026-04-27 17:24 | -20.52957 | 145.96099 | 10611 ft | 230 kts | 359° |
| 2026-04-27 17:24 | -20.51360 | 145.96009 | 10611 ft | 230 kts | 358° |
| 2026-04-27 17:24 | -20.49758 | 145.95915 | 10611 ft | 230 kts | 358° |
| 2026-04-27 17:25 | -20.48159 | 145.95822 | 10609 ft | 230 kts | 358° |
| 2026-04-27 17:25 | -20.46577 | 145.95732 | 10610 ft | 231 kts | 358° |
| 2026-04-27 17:25 | -20.44976 | 145.95639 | 10610 ft | 231 kts | 358° |
| 2026-04-27 17:25 | -20.43376 | 145.95547 | 10609 ft | 231 kts | 358° |
| 2026-04-27 17:26 | -20.41773 | 145.95454 | 10605 ft | 230 kts | 358° |
| 2026-04-27 17:26 | -20.40172 | 145.95361 | 10607 ft | 230 kts | 358° |
| 2026-04-27 17:26 | -20.38572 | 145.95271 | 10609 ft | 231 kts | 358° |
| 2026-04-27 17:26 | -20.36969 | 145.95177 | 10609 ft | 230 kts | 358° |
| 2026-04-27 17:27 | -20.35369 | 145.95085 | 10607 ft | 231 kts | 358° |
| 2026-04-27 17:27 | -20.33784 | 145.94995 | 10612 ft | 231 kts | 358° |
| 2026-04-27 17:27 | -20.32184 | 145.94901 | 10606 ft | 231 kts | 358° |
| 2026-04-27 17:27 | -20.30578 | 145.94810 | 10607 ft | 231 kts | 358° |
| 2026-04-27 17:28 | -20.28976 | 145.94718 | 10608 ft | 231 kts | 358° |
| 2026-04-27 17:28 | -20.27372 | 145.94626 | 10608 ft | 231 kts | 358° |
| 2026-04-27 17:28 | -20.24166 | 145.94441 | 10609 ft | 231 kts | 358° |
| 2026-04-27 17:29 | -20.22564 | 145.94349 | 10609 ft | 231 kts | 358° |
| 2026-04-27 17:29 | -20.20980 | 145.94257 | 10605 ft | 231 kts | 358° |
| 2026-04-27 17:29 | -20.19380 | 145.94166 | 10603 ft | 231 kts | 358° |
| 2026-04-27 17:29 | -20.17775 | 145.94074 | 10604 ft | 231 kts | 358° |
| 2026-04-27 17:30 | -20.16192 | 145.93982 | 10603 ft | 231 kts | 358° |
| 2026-04-27 17:30 | -20.12982 | 145.93798 | 10604 ft | 231 kts | 358° |
| 2026-04-27 17:30 | -20.11374 | 145.93706 | 10606 ft | 231 kts | 358° |
| 2026-04-27 17:31 | -20.09773 | 145.93614 | 10603 ft | 231 kts | 358° |
| 2026-04-27 17:31 | -20.08167 | 145.93521 | 10603 ft | 231 kts | 358° |
| 2026-04-27 17:31 | -20.06563 | 145.93429 | 10602 ft | 231 kts | 358° |
| 2026-04-27 17:31 | -20.04977 | 145.93339 | 10602 ft | 231 kts | 358° |
| 2026-04-27 17:32 | -20.03373 | 145.93246 | 10601 ft | 231 kts | 358° |
| 2026-04-27 17:32 | -20.00161 | 145.93062 | 10603 ft | 231 kts | 358° |
| 2026-04-27 17:32 | -19.98554 | 145.92970 | 10600 ft | 231 kts | 358° |
| 2026-04-27 17:33 | -19.96949 | 145.92877 | 10600 ft | 231 kts | 358° |
| 2026-04-27 17:33 | -19.95339 | 145.92786 | 10599 ft | 231 kts | 358° |
| 2026-04-27 17:33 | -19.93735 | 145.92694 | 10597 ft | 231 kts | 358° |
| 2026-04-27 17:33 | -19.92127 | 145.92602 | 10596 ft | 231 kts | 357° |
| 2026-04-27 17:34 | -19.90543 | 145.92511 | 10598 ft | 231 kts | 358° |
| 2026-04-27 17:34 | -19.88934 | 145.92419 | 10600 ft | 231 kts | 358° |
| 2026-04-27 17:34 | -19.87329 | 145.92328 | 10599 ft | 231 kts | 357° |
| 2026-04-27 17:34 | -19.85720 | 145.92235 | 10594 ft | 231 kts | 357° |
| 2026-04-27 17:35 | -19.84114 | 145.92143 | 10596 ft | 232 kts | 357° |
| 2026-04-27 17:35 | -19.82503 | 145.92051 | 10597 ft | 232 kts | 357° |
| 2026-04-27 17:35 | -19.80892 | 145.91959 | 10596 ft | 232 kts | 357° |
| 2026-04-27 17:35 | -19.79285 | 145.91867 | 10595 ft | 232 kts | 357° |
| 2026-04-27 17:36 | -19.77677 | 145.91775 | 10598 ft | 232 kts | 358° |
| 2026-04-27 17:36 | -19.76088 | 145.91684 | 10597 ft | 232 kts | 357° |
| 2026-04-27 17:36 | -19.74481 | 145.91593 | 10595 ft | 232 kts | 357° |
| 2026-04-27 17:36 | -19.72869 | 145.91499 | 10595 ft | 232 kts | 357° |
| 2026-04-27 17:37 | -19.71259 | 145.91408 | 10594 ft | 232 kts | 357° |
| 2026-04-27 17:37 | -19.69646 | 145.91316 | 10591 ft | 232 kts | 357° |
| 2026-04-27 17:37 | -19.68037 | 145.91224 | 10593 ft | 232 kts | 357° |
| 2026-04-27 17:37 | -19.66425 | 145.91132 | 10591 ft | 232 kts | 357° |
| 2026-04-27 17:38 | -19.65360 | 145.91071 | 10591 ft | 232 kts | 357° |
| 2026-04-27 17:38 | -19.63224 | 145.90950 | 10592 ft | 232 kts | 357° |
| 2026-04-27 17:38 | -19.61613 | 145.90857 | 10594 ft | 232 kts | 357° |
| 2026-04-27 17:38 | -19.59998 | 145.90765 | 10595 ft | 232 kts | 357° |
| 2026-04-27 17:39 | -19.58387 | 145.90673 | 10596 ft | 232 kts | 357° |
| 2026-04-27 17:39 | -19.56773 | 145.90581 | 10596 ft | 232 kts | 357° |
| 2026-04-27 17:39 | -19.55164 | 145.90490 | 10597 ft | 232 kts | 357° |
| 2026-04-27 17:39 | -19.53550 | 145.90397 | 10597 ft | 232 kts | 357° |
| 2026-04-27 17:40 | -19.52483 | 145.90337 | 10595 ft | 232 kts | 357° |
| 2026-04-27 17:40 | -19.50869 | 145.90245 | 10596 ft | 232 kts | 357° |
| 2026-04-27 17:40 | -19.49259 | 145.90153 | 10595 ft | 232 kts | 357° |
| 2026-04-27 17:40 | -19.47124 | 145.90031 | 10592 ft | 232 kts | 358° |
| 2026-04-27 17:41 | -19.45516 | 145.89940 | 10592 ft | 232 kts | 358° |
| 2026-04-27 17:41 | -19.44448 | 145.89879 | 10593 ft | 232 kts | 358° |
| 2026-04-27 17:41 | -19.42296 | 145.89756 | 10594 ft | 232 kts | 358° |
| 2026-04-27 17:41 | -19.40683 | 145.89665 | 10592 ft | 232 kts | 358° |
| 2026-04-27 17:42 | -19.39618 | 145.89604 | 10595 ft | 232 kts | 358° |
| 2026-04-27 17:42 | -19.38007 | 145.89512 | 10595 ft | 232 kts | 358° |
| 2026-04-27 17:42 | -19.36400 | 145.89421 | 10593 ft | 232 kts | 358° |
| 2026-04-27 17:42 | -19.34789 | 145.89329 | 10593 ft | 232 kts | 358° |
| 2026-04-27 17:43 | -19.33182 | 145.89238 | 10591 ft | 232 kts | 358° |
| 2026-04-27 17:43 | -19.31571 | 145.89147 | 10592 ft | 232 kts | 358° |
| 2026-04-27 17:43 | -19.29442 | 145.89025 | 10592 ft | 232 kts | 358° |
| 2026-04-27 17:43 | -19.28353 | 145.88963 | 10595 ft | 231 kts | 358° |
| 2026-04-27 17:44 | -19.26769 | 145.88873 | 10593 ft | 231 kts | 358° |
| 2026-04-27 17:44 | -19.25160 | 145.88782 | 10595 ft | 231 kts | 358° |
| 2026-04-27 17:44 | -19.23554 | 145.88691 | 10591 ft | 231 kts | 358° |
| 2026-04-27 17:44 | -19.21944 | 145.88599 | 10595 ft | 232 kts | 358° |
| 2026-04-27 17:45 | -19.20335 | 145.88508 | 10590 ft | 232 kts | 358° |
| 2026-04-27 17:45 | -19.18722 | 145.88416 | 10591 ft | 232 kts | 358° |
| 2026-04-27 17:45 | -19.17115 | 145.88325 | 10589 ft | 231 kts | 358° |
| 2026-04-27 17:45 | -19.15506 | 145.88234 | 10590 ft | 231 kts | 358° |
| 2026-04-27 17:46 | -19.13899 | 145.88142 | 10592 ft | 232 kts | 358° |
| 2026-04-27 17:46 | -19.12307 | 145.88053 | 10592 ft | 232 kts | 358° |
| 2026-04-27 17:46 | -19.10698 | 145.87961 | 10594 ft | 232 kts | 358° |
| 2026-04-27 17:46 | -19.09087 | 145.87870 | 10591 ft | 232 kts | 358° |
| 2026-04-27 17:47 | -19.07478 | 145.87778 | 10589 ft | 232 kts | 358° |
| 2026-04-27 17:47 | -19.06408 | 145.87718 | 10587 ft | 232 kts | 358° |
| 2026-04-27 17:47 | -19.04254 | 145.87596 | 10594 ft | 232 kts | 358° |
| 2026-04-27 17:47 | -19.02638 | 145.87504 | 10590 ft | 232 kts | 358° |
| 2026-04-27 17:48 | -19.01026 | 145.87413 | 10590 ft | 232 kts | 358° |
| 2026-04-27 17:48 | -18.99413 | 145.87322 | 10595 ft | 232 kts | 358° |
| 2026-04-27 17:48 | -18.97803 | 145.87231 | 10590 ft | 232 kts | 358° |
| 2026-04-27 17:48 | -18.96213 | 145.87140 | 10585 ft | 232 kts | 358° |
| 2026-04-27 17:49 | -18.94604 | 145.87049 | 10584 ft | 232 kts | 359° |
| 2026-04-27 17:49 | -18.92992 | 145.86959 | 10585 ft | 232 kts | 358° |
| 2026-04-27 17:49 | -18.91381 | 145.86867 | 10589 ft | 232 kts | 358° |
| 2026-04-27 17:49 | -18.89764 | 145.86776 | 10586 ft | 232 kts | 358° |
| 2026-04-27 17:50 | -18.88151 | 145.86685 | 10583 ft | 233 kts | 358° |
| 2026-04-27 17:50 | -18.84943 | 145.86503 | 10584 ft | 232 kts | 358° |
| 2026-04-27 17:50 | -18.83327 | 145.86412 | 10582 ft | 232 kts | 358° |
| 2026-04-27 17:51 | -18.81714 | 145.86321 | 10586 ft | 232 kts | 358° |
| 2026-04-27 17:51 | -18.80097 | 145.86229 | 10585 ft | 232 kts | 358° |
| 2026-04-27 17:51 | -18.78483 | 145.86138 | 10585 ft | 233 kts | 358° |
| 2026-04-27 17:51 | -18.76864 | 145.86047 | 10593 ft | 233 kts | 358° |
| 2026-04-27 17:52 | -18.75247 | 145.85955 | 10589 ft | 233 kts | 358° |
| 2026-04-27 17:52 | -18.73627 | 145.85864 | 10587 ft | 233 kts | 359° |
| 2026-04-27 17:52 | -18.72012 | 145.85773 | 10583 ft | 233 kts | 358° |
| 2026-04-27 17:52 | -18.70415 | 145.85683 | 10580 ft | 233 kts | 359° |
| 2026-04-27 17:53 | -18.68800 | 145.85591 | 10578 ft | 233 kts | 358° |
| 2026-04-27 17:53 | -18.67181 | 145.85500 | 10578 ft | 233 kts | 359° |
| 2026-04-27 17:53 | -18.65565 | 145.85409 | 10577 ft | 233 kts | 359° |
| 2026-04-27 17:53 | -18.63945 | 145.85318 | 10575 ft | 233 kts | 359° |
| 2026-04-27 17:54 | -18.62329 | 145.85226 | 10576 ft | 233 kts | 359° |
| 2026-04-27 17:54 | -18.60711 | 145.85136 | 10585 ft | 233 kts | 359° |
| 2026-04-27 17:54 | -18.59094 | 145.85044 | 10582 ft | 233 kts | 359° |
| 2026-04-27 17:54 | -18.57494 | 145.84954 | 10582 ft | 233 kts | 359° |
| 2026-04-27 17:55 | -18.55874 | 145.84862 | 10582 ft | 233 kts | 359° |
| 2026-04-27 17:55 | -18.54251 | 145.84772 | 10581 ft | 233 kts | 359° |
| 2026-04-27 17:55 | -18.52630 | 145.84680 | 10577 ft | 234 kts | 359° |
| 2026-04-27 17:55 | -18.51007 | 145.84588 | 10574 ft | 233 kts | 359° |
| 2026-04-27 17:56 | -18.49389 | 145.84497 | 10571 ft | 233 kts | 359° |
| 2026-04-27 17:56 | -18.47768 | 145.84406 | 10569 ft | 233 kts | 359° |
| 2026-04-27 17:56 | -18.46148 | 145.84315 | 10568 ft | 234 kts | 359° |
| 2026-04-27 17:56 | -18.44521 | 145.84224 | 10570 ft | 234 kts | 359° |
| 2026-04-27 17:57 | -18.42919 | 145.84133 | 10567 ft | 234 kts | 359° |
| 2026-04-27 17:57 | -18.41292 | 145.84042 | 10574 ft | 234 kts | 359° |
| 2026-04-27 17:57 | -18.39669 | 145.83951 | 10573 ft | 234 kts | 359° |
| 2026-04-27 17:57 | -18.38041 | 145.83859 | 10566 ft | 234 kts | 359° |
| 2026-04-27 17:58 | -18.36415 | 145.83767 | 10570 ft | 234 kts | 359° |
| 2026-04-27 17:58 | -18.34786 | 145.83676 | 10567 ft | 234 kts | 359° |
| 2026-04-27 17:58 | -18.33156 | 145.83585 | 10566 ft | 234 kts | 359° |
| 2026-04-27 17:58 | -18.31528 | 145.83493 | 10564 ft | 234 kts | 359° |
| 2026-04-27 17:59 | -18.29901 | 145.83402 | 10569 ft | 234 kts | 359° |
| 2026-04-27 17:59 | -18.28292 | 145.83312 | 10566 ft | 234 kts | 359° |
| 2026-04-27 17:59 | -18.26666 | 145.83220 | 10560 ft | 234 kts | 359° |
| 2026-04-27 17:59 | -18.25037 | 145.83130 | 10560 ft | 234 kts | 359° |
| 2026-04-27 18:00 | -18.23436 | 145.83039 | 10564 ft | 235 kts | 359° |
| 2026-04-27 18:00 | -18.21801 | 145.82947 | 10572 ft | 235 kts | 359° |
| 2026-04-27 18:00 | -18.20163 | 145.82854 | 10576 ft | 236 kts | 359° |
| 2026-04-27 18:00 | -18.18530 | 145.82763 | 10571 ft | 235 kts | 359° |
| 2026-04-27 18:01 | -18.16898 | 145.82673 | 10570 ft | 235 kts | 359° |
| 2026-04-27 18:01 | -18.15263 | 145.82581 | 10553 ft | 235 kts | 359° |
| 2026-04-27 18:01 | -18.13630 | 145.82489 | 10542 ft | 235 kts | 359° |
| 2026-04-27 18:01 | -18.12021 | 145.82399 | 10551 ft | 235 kts | 359° |
| 2026-04-27 18:02 | -18.10384 | 145.82307 | 10555 ft | 236 kts | 359° |
| 2026-04-27 18:02 | -18.08741 | 145.82215 | 10559 ft | 236 kts | 359° |
| 2026-04-27 18:02 | -18.07101 | 145.82123 | 10559 ft | 236 kts | 359° |
| 2026-04-27 18:02 | -18.05460 | 145.82030 | 10559 ft | 236 kts | 359° |
| 2026-04-27 18:03 | -18.03825 | 145.81940 | 10551 ft | 235 kts | 359° |
| 2026-04-27 18:03 | -18.02186 | 145.81848 | 10555 ft | 236 kts | 359° |
| 2026-04-27 18:03 | -18.00548 | 145.81756 | 10555 ft | 236 kts | 359° |
| 2026-04-27 18:03 | -17.98902 | 145.81664 | 10559 ft | 237 kts | 359° |
| 2026-04-27 18:04 | -17.97277 | 145.81573 | 10561 ft | 237 kts | 359° |
| 2026-04-27 18:04 | -17.95635 | 145.81481 | 10560 ft | 236 kts | 359° |
| 2026-04-27 18:04 | -17.93997 | 145.81389 | 10559 ft | 236 kts | 359° |
| 2026-04-27 18:04 | -17.92355 | 145.81298 | 10553 ft | 236 kts | 359° |
| 2026-04-27 18:05 | -17.90717 | 145.81206 | 10553 ft | 236 kts | 359° |
| 2026-04-27 18:05 | -17.89073 | 145.81115 | 10551 ft | 237 kts | 359° |
| 2026-04-27 18:05 | -17.87427 | 145.81022 | 10555 ft | 237 kts | 359° |
| 2026-04-27 18:05 | -17.85784 | 145.80930 | 10554 ft | 237 kts | 359° |
| 2026-04-27 18:06 | -17.84135 | 145.80838 | 10551 ft | 237 kts | 359° |
| 2026-04-27 18:06 | -17.82511 | 145.80746 | 10549 ft | 237 kts | 359° |
| 2026-04-27 18:06 | -17.80862 | 145.80656 | 10550 ft | 237 kts | 359° |
| 2026-04-27 18:06 | -17.79217 | 145.80565 | 10543 ft | 237 kts | 359° |
| 2026-04-27 18:07 | -17.77571 | 145.80471 | 10539 ft | 236 kts | 359° |
| 2026-04-27 18:07 | -17.75930 | 145.80378 | 10535 ft | 237 kts | 358° |
| 2026-04-27 18:07 | -17.74278 | 145.80288 | 10541 ft | 238 kts | 359° |
| 2026-04-27 18:07 | -17.72628 | 145.80196 | 10552 ft | 238 kts | 359° |
| 2026-04-27 18:08 | -17.70996 | 145.80105 | 10547 ft | 238 kts | 359° |
| 2026-04-27 18:08 | -17.69347 | 145.80013 | 10552 ft | 237 kts | 359° |
| 2026-04-27 18:08 | -17.67693 | 145.79919 | 10554 ft | 238 kts | 358° |
| 2026-04-27 18:08 | -17.66042 | 145.79828 | 10551 ft | 238 kts | 359° |
| 2026-04-27 18:09 | -17.64390 | 145.79737 | 10545 ft | 237 kts | 359° |
| 2026-04-27 18:09 | -17.62745 | 145.79642 | 10558 ft | 237 kts | 359° |
| 2026-04-27 18:09 | -17.61092 | 145.79554 | 10558 ft | 238 kts | 359° |
| 2026-04-27 18:09 | -17.59442 | 145.79460 | 10549 ft | 238 kts | 359° |
| 2026-04-27 18:10 | -17.57787 | 145.79368 | 10557 ft | 237 kts | 358° |
| 2026-04-27 18:10 | -17.56140 | 145.79278 | 10560 ft | 237 kts | 358° |
| 2026-04-27 18:10 | -17.54509 | 145.79185 | 10561 ft | 238 kts | 358° |
| 2026-04-27 18:10 | -17.52859 | 145.79094 | 10559 ft | 238 kts | 359° |
| 2026-04-27 18:11 | -17.51206 | 145.79001 | 10558 ft | 237 kts | 358° |
| 2026-04-27 18:11 | -17.49558 | 145.78910 | 10554 ft | 238 kts | 358° |
| 2026-04-27 18:11 | -17.47904 | 145.78818 | 10556 ft | 238 kts | 358° |
| 2026-04-27 18:11 | -17.46251 | 145.78726 | 10558 ft | 238 kts | 358° |
| 2026-04-27 18:12 | -17.44598 | 145.78634 | 10561 ft | 237 kts | 358° |
| 2026-04-27 18:12 | -17.42950 | 145.78543 | 10552 ft | 237 kts | 358° |
| 2026-04-27 18:12 | -17.41320 | 145.78451 | 10550 ft | 238 kts | 358° |
| 2026-04-27 18:12 | -17.39670 | 145.78361 | 10556 ft | 238 kts | 358° |
| 2026-04-27 18:13 | -17.38017 | 145.78268 | 10548 ft | 238 kts | 358° |
| 2026-04-27 18:13 | -17.36366 | 145.78175 | 10541 ft | 238 kts | 358° |
| 2026-04-27 18:13 | -17.34710 | 145.78084 | 10541 ft | 238 kts | 358° |
| 2026-04-27 18:13 | -17.33057 | 145.77993 | 10549 ft | 238 kts | 358° |
| 2026-04-27 18:14 | -17.31401 | 145.77900 | 10547 ft | 238 kts | 358° |
| 2026-04-27 18:14 | -17.29751 | 145.77808 | 10555 ft | 238 kts | 358° |
| 2026-04-27 18:14 | -17.28095 | 145.77717 | 10553 ft | 238 kts | 358° |
| 2026-04-27 18:14 | -17.26442 | 145.77625 | 10552 ft | 238 kts | 358° |
| 2026-04-27 18:15 | -17.24808 | 145.77534 | 10546 ft | 238 kts | 358° |
| 2026-04-27 18:15 | -17.23157 | 145.77442 | 10535 ft | 238 kts | 358° |
| 2026-04-27 18:15 | -17.21502 | 145.77351 | 10535 ft | 238 kts | 358° |
| 2026-04-27 18:15 | -17.19851 | 145.77260 | 10526 ft | 238 kts | 358° |
| 2026-04-27 18:16 | -17.18198 | 145.77167 | 10519 ft | 238 kts | 358° |
| 2026-04-27 18:16 | -17.16546 | 145.77075 | 10521 ft | 238 kts | 358° |
| 2026-04-27 18:16 | -17.14892 | 145.76985 | 10523 ft | 238 kts | 358° |
| 2026-04-27 18:16 | -17.13239 | 145.76893 | 10518 ft | 238 kts | 358° |
| 2026-04-27 18:17 | -17.11602 | 145.76801 | 10517 ft | 239 kts | 358° |
| 2026-04-27 18:17 | -17.09946 | 145.76710 | 10523 ft | 239 kts | 358° |
| 2026-04-27 18:17 | -17.08287 | 145.76618 | 10517 ft | 239 kts | 358° |
| 2026-04-27 18:17 | -17.06632 | 145.76527 | 10509 ft | 238 kts | 358° |
| 2026-04-27 18:18 | -17.04974 | 145.76433 | 10508 ft | 239 kts | 358° |
| 2026-04-27 18:18 | -17.03317 | 145.76344 | 10507 ft | 239 kts | 358° |
| 2026-04-27 18:18 | -17.01657 | 145.76251 | 10503 ft | 239 kts | 359° |
| 2026-04-27 18:18 | -16.99998 | 145.76159 | 10504 ft | 238 kts | 358° |
| 2026-04-27 18:19 | -16.98364 | 145.76067 | 10499 ft | 239 kts | 358° |
| 2026-04-27 18:19 | -16.96709 | 145.75978 | 10498 ft | 238 kts | 359° |
| 2026-04-27 18:19 | -16.95052 | 145.75886 | 10503 ft | 239 kts | 359° |
| 2026-04-27 18:19 | -16.93459 | 145.75797 | 10500 ft | 239 kts | 359° |
| 2026-04-27 18:20 | -16.91884 | 145.75710 | 10500 ft | 239 kts | 359° |
| 2026-04-27 18:20 | -16.90227 | 145.75618 | 10502 ft | 239 kts | 358° |
| 2026-04-27 18:20 | -16.88566 | 145.75527 | 10496 ft | 239 kts | 359° |
| 2026-04-27 18:20 | -16.86908 | 145.75434 | 10498 ft | 239 kts | 359° |
| 2026-04-27 18:21 | -16.85247 | 145.75343 | 10498 ft | 239 kts | 358° |
| 2026-04-27 18:21 | -16.83589 | 145.75252 | 10500 ft | 239 kts | 359° |
| 2026-04-27 18:21 | -16.81949 | 145.75160 | 10499 ft | 239 kts | 358° |
| 2026-04-27 18:21 | -16.80291 | 145.75069 | 10498 ft | 239 kts | 359° |
| 2026-04-27 18:22 | -16.78629 | 145.74977 | 10499 ft | 239 kts | 359° |
| 2026-04-27 18:22 | -16.76972 | 145.74887 | 10500 ft | 239 kts | 359° |
| 2026-04-27 18:22 | -16.75309 | 145.74793 | 10503 ft | 240 kts | 359° |
| 2026-04-27 18:22 | -16.73645 | 145.74702 | 10504 ft | 240 kts | 359° |
| 2026-04-27 18:23 | -16.71981 | 145.74611 | 10501 ft | 239 kts | 359° |
| 2026-04-27 18:23 | -16.70322 | 145.74520 | 10504 ft | 239 kts | 359° |
| 2026-04-27 18:23 | -16.68679 | 145.74427 | 10504 ft | 240 kts | 360° |
| 2026-04-27 18:23 | -16.67018 | 145.74337 | 10507 ft | 239 kts | 360° |
| 2026-04-27 18:24 | -16.65351 | 145.74246 | 10505 ft | 240 kts | 359° |
| 2026-04-27 18:24 | -16.63689 | 145.74151 | 10509 ft | 239 kts | 359° |
| 2026-04-27 18:24 | -16.62024 | 145.74061 | 10505 ft | 239 kts | 359° |
| 2026-04-27 18:24 | -16.60361 | 145.73971 | 10504 ft | 240 kts | 359° |
| 2026-04-27 18:25 | -16.58696 | 145.73877 | 10504 ft | 239 kts | 359° |
| 2026-04-27 18:25 | -16.57038 | 145.73786 | 10503 ft | 239 kts | 359° |
| 2026-04-27 18:25 | -16.55374 | 145.73694 | 10503 ft | 239 kts | 359° |
| 2026-04-27 18:25 | -16.53712 | 145.73604 | 10507 ft | 239 kts | 359° |
| 2026-04-27 18:26 | -16.52069 | 145.73514 | 10510 ft | 240 kts | 359° |
| 2026-04-27 18:26 | -16.50405 | 145.73419 | 10507 ft | 239 kts | 359° |
| 2026-04-27 18:26 | -16.48740 | 145.73327 | 10506 ft | 240 kts | 359° |
| 2026-04-27 18:26 | -16.47073 | 145.73239 | 10506 ft | 240 kts | 359° |
| 2026-04-27 18:27 | -16.45410 | 145.73146 | 10502 ft | 240 kts | 359° |
| 2026-04-27 18:27 | -16.43743 | 145.73052 | 10504 ft | 240 kts | 359° |
| 2026-04-27 18:27 | -16.42080 | 145.72963 | 10499 ft | 240 kts | 360° |
| 2026-04-27 18:27 | -16.40413 | 145.72872 | 10503 ft | 240 kts | 359° |
| 2026-04-27 18:28 | -16.38772 | 145.72781 | 10501 ft | 240 kts | 358° |
| 2026-04-27 18:28 | -16.37107 | 145.72689 | 10500 ft | 240 kts | 359° |
| 2026-04-27 18:28 | -16.35437 | 145.72597 | 10503 ft | 240 kts | 359° |
| 2026-04-27 18:28 | -16.33772 | 145.72504 | 10503 ft | 240 kts | 359° |
| 2026-04-27 18:29 | -16.32101 | 145.72414 | 10499 ft | 240 kts | 359° |
| 2026-04-27 18:29 | -16.30435 | 145.72323 | 10499 ft | 240 kts | 359° |
| 2026-04-27 18:29 | -16.28763 | 145.72231 | 10502 ft | 241 kts | 359° |
| 2026-04-27 18:29 | -16.27092 | 145.72137 | 10502 ft | 241 kts | 359° |
| 2026-04-27 18:30 | -16.25447 | 145.72048 | 10502 ft | 241 kts | 358° |
| 2026-04-27 18:30 | -16.23776 | 145.71955 | 10499 ft | 241 kts | 359° |
| 2026-04-27 18:30 | -16.22101 | 145.71865 | 10496 ft | 241 kts | 359° |
| 2026-04-27 18:30 | -16.20431 | 145.71772 | 10494 ft | 241 kts | 359° |
| 2026-04-27 18:31 | -16.18757 | 145.71680 | 10496 ft | 241 kts | 360° |
| 2026-04-27 18:31 | -16.17088 | 145.71589 | 10502 ft | 241 kts | 359° |
| 2026-04-27 18:31 | -16.15412 | 145.71497 | 10503 ft | 241 kts | 359° |
| 2026-04-27 18:31 | -16.13734 | 145.71406 | 10505 ft | 241 kts | 359° |
| 2026-04-27 18:32 | -16.12060 | 145.71315 | 10504 ft | 241 kts | 359° |
| 2026-04-27 18:32 | -16.10408 | 145.71222 | 10498 ft | 241 kts | 359° |
| 2026-04-27 18:32 | -16.08728 | 145.71131 | 10495 ft | 242 kts | 359° |
| 2026-04-27 18:32 | -16.07052 | 145.71038 | 10493 ft | 241 kts | 359° |
| 2026-04-27 18:33 | -16.05374 | 145.70947 | 10498 ft | 242 kts | 359° |
| 2026-04-27 18:33 | -16.03696 | 145.70855 | 10497 ft | 242 kts | 359° |
| 2026-04-27 18:33 | -16.02015 | 145.70762 | 10492 ft | 241 kts | 359° |
| 2026-04-27 18:33 | -16.00340 | 145.70671 | 10491 ft | 241 kts | 359° |
| 2026-04-27 18:34 | -15.98661 | 145.70578 | 10492 ft | 241 kts | 359° |
| 2026-04-27 18:34 | -15.97006 | 145.70486 | 10490 ft | 241 kts | 359° |
| 2026-04-27 18:34 | -15.95334 | 145.70397 | 10493 ft | 241 kts | 359° |
| 2026-04-27 18:34 | -15.93659 | 145.70305 | 10492 ft | 241 kts | 359° |
| 2026-04-27 18:35 | -15.91987 | 145.70212 | 10498 ft | 241 kts | 358° |
| 2026-04-27 18:35 | -15.90316 | 145.70122 | 10498 ft | 241 kts | 359° |
| 2026-04-27 18:35 | -15.88641 | 145.70030 | 10500 ft | 241 kts | 359° |
| 2026-04-27 18:35 | -15.86966 | 145.69940 | 10493 ft | 241 kts | 359° |
| 2026-04-27 18:36 | -15.85297 | 145.69849 | 10490 ft | 241 kts | 359° |
| 2026-04-27 18:36 | -15.83628 | 145.69755 | 10489 ft | 240 kts | 358° |
| 2026-04-27 18:36 | -15.81957 | 145.69664 | 10487 ft | 240 kts | 359° |
| 2026-04-27 18:36 | -15.80288 | 145.69573 | 10487 ft | 240 kts | 359° |
| 2026-04-27 18:37 | -15.78645 | 145.69485 | 10493 ft | 240 kts | 359° |
| 2026-04-27 18:37 | -15.76976 | 145.69392 | 10496 ft | 240 kts | 359° |
| 2026-04-27 18:37 | -15.75310 | 145.69299 | 10494 ft | 240 kts | 359° |
| 2026-04-27 18:37 | -15.73640 | 145.69210 | 10488 ft | 240 kts | 359° |
| 2026-04-27 18:38 | -15.71977 | 145.69121 | 10481 ft | 240 kts | 359° |
| 2026-04-27 18:38 | -15.70309 | 145.69027 | 10488 ft | 240 kts | 359° |
| 2026-04-27 18:38 | -15.68647 | 145.68939 | 10486 ft | 239 kts | 359° |
| 2026-04-27 18:38 | -15.66981 | 145.68846 | 10488 ft | 240 kts | 359° |
| 2026-04-27 18:39 | -15.65317 | 145.68754 | 10488 ft | 240 kts | 358° |
| 2026-04-27 18:39 | -15.63671 | 145.68666 | 10487 ft | 240 kts | 359° |
| 2026-04-27 18:39 | -15.62007 | 145.68574 | 10487 ft | 240 kts | 358° |
| 2026-04-27 18:39 | -15.60338 | 145.68481 | 10485 ft | 240 kts | 358° |
| 2026-04-27 18:40 | -15.58675 | 145.68394 | 10484 ft | 239 kts | 359° |
| 2026-04-27 18:40 | -15.57008 | 145.68301 | 10489 ft | 240 kts | 359° |
| 2026-04-27 18:40 | -15.55345 | 145.68210 | 10487 ft | 240 kts | 359° |
| 2026-04-27 18:40 | -15.53676 | 145.68123 | 10488 ft | 240 kts | 359° |
| 2026-04-27 18:41 | -15.52009 | 145.68028 | 10489 ft | 240 kts | 359° |
| 2026-04-27 18:41 | -15.50338 | 145.67936 | 10487 ft | 240 kts | 359° |
| 2026-04-27 18:41 | -15.48692 | 145.67849 | 10486 ft | 240 kts | 359° |
| 2026-04-27 18:41 | -15.47021 | 145.67759 | 10484 ft | 240 kts | 359° |
| 2026-04-27 18:42 | -15.45354 | 145.67665 | 10483 ft | 240 kts | 358° |
| 2026-04-27 18:42 | -15.44250 | 145.67605 | 10480 ft | 240 kts | 359° |
| 2026-04-27 18:42 | -15.42014 | 145.67485 | 10484 ft | 240 kts | 359° |
| 2026-04-27 18:42 | -15.40341 | 145.67393 | 10484 ft | 240 kts | 359° |
| 2026-04-27 18:43 | -15.38670 | 145.67302 | 10483 ft | 241 kts | 359° |
| 2026-04-27 18:43 | -15.36993 | 145.67211 | 10484 ft | 241 kts | 359° |
| 2026-04-27 18:43 | -15.35345 | 145.67120 | 10482 ft | 241 kts | 359° |
| 2026-04-27 18:43 | -15.33671 | 145.67032 | 10481 ft | 241 kts | 359° |
| 2026-04-27 18:44 | -15.32000 | 145.66939 | 10485 ft | 241 kts | 359° |
| 2026-04-27 18:44 | -15.30327 | 145.66846 | 10479 ft | 240 kts | 359° |
| 2026-04-27 18:44 | -15.28658 | 145.66757 | 10481 ft | 241 kts | 360° |
| 2026-04-27 18:44 | -15.26983 | 145.66667 | 10483 ft | 241 kts | 359° |
| 2026-04-27 18:45 | -15.25314 | 145.66575 | 10484 ft | 240 kts | 358° |
| 2026-04-27 18:45 | -15.23640 | 145.66483 | 10479 ft | 241 kts | 359° |
| 2026-04-27 18:45 | -15.21968 | 145.66394 | 10480 ft | 241 kts | 359° |
| 2026-04-27 18:45 | -15.20317 | 145.66302 | 10479 ft | 240 kts | 359° |
| 2026-04-27 18:46 | -15.18647 | 145.66211 | 10483 ft | 240 kts | 359° |
| 2026-04-27 18:46 | -15.16973 | 145.66124 | 10484 ft | 241 kts | 359° |
| 2026-04-27 18:46 | -15.15302 | 145.66030 | 10483 ft | 241 kts | 359° |
| 2026-04-27 18:46 | -15.13621 | 145.65939 | 10485 ft | 242 kts | 359° |
| 2026-04-27 18:47 | -15.11946 | 145.65850 | 10481 ft | 241 kts | 358° |
| 2026-04-27 18:47 | -15.10267 | 145.65757 | 10478 ft | 241 kts | 359° |
| 2026-04-27 18:47 | -15.08591 | 145.65667 | 10475 ft | 241 kts | 359° |
| 2026-04-27 18:47 | -15.06933 | 145.65577 | 10478 ft | 242 kts | 358° |
| 2026-04-27 18:48 | -15.05255 | 145.65483 | 10477 ft | 242 kts | 359° |
| 2026-04-27 18:48 | -15.03573 | 145.65395 | 10482 ft | 242 kts | 359° |
| 2026-04-27 18:48 | -15.01895 | 145.65304 | 10481 ft | 242 kts | 359° |
| 2026-04-27 18:48 | -15.00216 | 145.65210 | 10480 ft | 241 kts | 358° |
| 2026-04-27 18:49 | -14.98538 | 145.65119 | 10483 ft | 242 kts | 359° |
| 2026-04-27 18:49 | -14.96856 | 145.65032 | 10481 ft | 242 kts | 359° |
| 2026-04-27 18:49 | -14.95180 | 145.64939 | 10481 ft | 241 kts | 358° |
| 2026-04-27 18:49 | -14.93498 | 145.64846 | 10481 ft | 242 kts | 358° |
| 2026-04-27 18:50 | -14.91842 | 145.64757 | 10476 ft | 241 kts | 359° |
| 2026-04-27 18:50 | -14.90161 | 145.64666 | 10482 ft | 242 kts | 359° |
| 2026-04-27 18:50 | -14.88481 | 145.64576 | 10479 ft | 242 kts | 359° |
| 2026-04-27 18:50 | -14.86797 | 145.64485 | 10479 ft | 242 kts | 359° |
| 2026-04-27 18:51 | -14.85116 | 145.64394 | 10475 ft | 242 kts | 359° |
| 2026-04-27 18:51 | -14.83429 | 145.64301 | 10477 ft | 243 kts | 359° |
| 2026-04-27 18:51 | -14.81744 | 145.64210 | 10473 ft | 243 kts | 358° |
| 2026-04-27 18:51 | -14.80055 | 145.64119 | 10477 ft | 242 kts | 358° |
| 2026-04-27 18:52 | -14.78373 | 145.64027 | 10480 ft | 243 kts | 358° |
| 2026-04-27 18:52 | -14.76708 | 145.63938 | 10481 ft | 243 kts | 359° |
| 2026-04-27 18:52 | -14.75023 | 145.63847 | 10484 ft | 243 kts | 358° |
| 2026-04-27 18:53 | -14.71642 | 145.63663 | 10477 ft | 243 kts | 359° |
| 2026-04-27 18:53 | -14.69949 | 145.63570 | 10472 ft | 244 kts | 359° |
| 2026-04-27 18:53 | -14.68260 | 145.63480 | 10472 ft | 243 kts | 359° |
| 2026-04-27 18:53 | -14.66569 | 145.63390 | 10473 ft | 243 kts | 359° |
| 2026-04-27 18:54 | -14.64883 | 145.63297 | 10479 ft | 243 kts | 359° |
| 2026-04-27 18:54 | -14.63190 | 145.63209 | 10475 ft | 243 kts | 359° |
| 2026-04-27 18:54 | -14.61526 | 145.63116 | 10476 ft | 243 kts | 358° |
| 2026-04-27 18:54 | -14.59835 | 145.63023 | 10475 ft | 243 kts | 358° |
| 2026-04-27 18:55 | -14.58150 | 145.62936 | 10468 ft | 243 kts | 358° |
| 2026-04-27 18:55 | -14.56462 | 145.62842 | 10474 ft | 243 kts | 358° |
| 2026-04-27 18:55 | -14.54777 | 145.62748 | 10473 ft | 243 kts | 359° |
| 2026-04-27 18:55 | -14.53087 | 145.62662 | 10476 ft | 243 kts | 359° |
| 2026-04-27 18:56 | -14.51403 | 145.62569 | 10473 ft | 243 kts | 358° |
| 2026-04-27 18:56 | -14.49714 | 145.62478 | 10475 ft | 243 kts | 359° |
| 2026-04-27 18:56 | -14.48029 | 145.62387 | 10471 ft | 243 kts | 359° |
| 2026-04-27 18:56 | -14.46363 | 145.62296 | 10468 ft | 243 kts | 358° |
| 2026-04-27 18:57 | -14.44677 | 145.62206 | 10468 ft | 243 kts | 359° |
| 2026-04-27 18:57 | -14.42987 | 145.62116 | 10465 ft | 243 kts | 359° |
| 2026-04-27 18:57 | -14.41301 | 145.62023 | 10468 ft | 243 kts | 358° |
| 2026-04-27 18:57 | -14.39611 | 145.61932 | 10474 ft | 243 kts | 359° |
| 2026-04-27 18:58 | -14.37925 | 145.61841 | 10474 ft | 243 kts | 359° |
| 2026-04-27 18:58 | -14.36805 | 145.61782 | 10474 ft | 243 kts | 359° |
| 2026-04-27 18:58 | -14.34549 | 145.61658 | 10476 ft | 243 kts | 359° |
| 2026-04-27 18:58 | -14.32859 | 145.61567 | 10473 ft | 243 kts | 359° |
| 2026-04-27 18:59 | -14.31171 | 145.61480 | 10471 ft | 243 kts | 358° |
| 2026-04-27 18:59 | -14.29510 | 145.61387 | 10467 ft | 242 kts | 358° |
| 2026-04-27 18:59 | -14.27829 | 145.61295 | 10468 ft | 242 kts | 358° |
| 2026-04-27 18:59 | -14.26145 | 145.61207 | 10469 ft | 242 kts | 358° |
| 2026-04-27 19:00 | -14.24474 | 145.61117 | 10468 ft | 242 kts | 358° |
| 2026-04-27 19:00 | -14.22791 | 145.61024 | 10474 ft | 242 kts | 358° |
| 2026-04-27 19:00 | -14.21109 | 145.60937 | 10471 ft | 242 kts | 358° |
| 2026-04-27 19:00 | -14.19424 | 145.60845 | 10472 ft | 242 kts | 358° |
| 2026-04-27 19:01 | -14.17761 | 145.60752 | 10467 ft | 242 kts | 358° |
| 2026-04-27 19:01 | -14.16080 | 145.60664 | 10471 ft | 242 kts | 358° |
| 2026-04-27 19:01 | -14.14400 | 145.60575 | 10472 ft | 242 kts | 358° |
| 2026-04-27 19:01 | -14.12716 | 145.60483 | 10470 ft | 242 kts | 358° |
| 2026-04-27 19:02 | -14.11037 | 145.60392 | 10473 ft | 242 kts | 358° |
| 2026-04-27 19:02 | -14.09354 | 145.60302 | 10467 ft | 242 kts | 358° |
| 2026-04-27 19:02 | -14.07672 | 145.60211 | 10464 ft | 242 kts | 358° |
| 2026-04-27 19:02 | -14.05992 | 145.60121 | 10466 ft | 242 kts | 358° |
| 2026-04-27 19:03 | -14.04308 | 145.60031 | 10467 ft | 242 kts | 358° |
| 2026-04-27 19:03 | -14.02632 | 145.59940 | 10466 ft | 242 kts | 358° |
| 2026-04-27 19:03 | -14.00954 | 145.59850 | 10467 ft | 242 kts | 358° |
| 2026-04-27 19:03 | -13.99837 | 145.59790 | 10467 ft | 242 kts | 358° |
| 2026-04-27 19:04 | -13.97616 | 145.59671 | 10468 ft | 242 kts | 358° |
| 2026-04-27 19:04 | -13.95937 | 145.59579 | 10469 ft | 241 kts | 358° |
| 2026-04-27 19:04 | -13.94262 | 145.59491 | 10468 ft | 242 kts | 358° |
| 2026-04-27 19:04 | -13.92582 | 145.59400 | 10470 ft | 241 kts | 358° |
| 2026-04-27 19:05 | -13.90911 | 145.59311 | 10468 ft | 241 kts | 358° |
| 2026-04-27 19:05 | -13.89235 | 145.59220 | 10469 ft | 241 kts | 358° |
| 2026-04-27 19:05 | -13.87582 | 145.59131 | 10466 ft | 241 kts | 358° |
| 2026-04-27 19:05 | -13.85910 | 145.59042 | 10465 ft | 241 kts | 358° |
| 2026-04-27 19:06 | -13.84240 | 145.58951 | 10463 ft | 241 kts | 358° |
| 2026-04-27 19:06 | -13.82567 | 145.58863 | 10464 ft | 240 kts | 358° |
| 2026-04-27 19:06 | -13.80898 | 145.58773 | 10463 ft | 241 kts | 358° |
| 2026-04-27 19:06 | -13.79256 | 145.58683 | 10464 ft | 241 kts | 358° |
| 2026-04-27 19:07 | -13.77587 | 145.58596 | 10467 ft | 240 kts | 358° |
| 2026-04-27 19:07 | -13.75917 | 145.58505 | 10465 ft | 240 kts | 358° |
| 2026-04-27 19:07 | -13.74246 | 145.58414 | 10464 ft | 240 kts | 358° |
| 2026-04-27 19:07 | -13.72578 | 145.58326 | 10463 ft | 240 kts | 358° |
| 2026-04-27 19:08 | -13.70906 | 145.58237 | 10459 ft | 240 kts | 358° |
| 2026-04-27 19:08 | -13.69263 | 145.58149 | 10460 ft | 240 kts | 358° |
| 2026-04-27 19:08 | -13.67599 | 145.58059 | 10460 ft | 240 kts | 358° |
| 2026-04-27 19:08 | -13.65932 | 145.57970 | 10463 ft | 240 kts | 358° |
| 2026-04-27 19:09 | -13.64264 | 145.57879 | 10463 ft | 240 kts | 358° |
| 2026-04-27 19:09 | -13.62602 | 145.57792 | 10463 ft | 239 kts | 358° |
| 2026-04-27 19:09 | -13.60941 | 145.57703 | 10461 ft | 239 kts | 357° |
| 2026-04-27 19:09 | -13.59276 | 145.57612 | 10461 ft | 239 kts | 358° |
| 2026-04-27 19:10 | -13.57611 | 145.57524 | 10461 ft | 239 kts | 357° |
| 2026-04-27 19:10 | -13.55950 | 145.57434 | 10461 ft | 239 kts | 358° |
| 2026-04-27 19:10 | -13.54284 | 145.57345 | 10462 ft | 239 kts | 357° |
| 2026-04-27 19:10 | -13.53184 | 145.57287 | 10459 ft | 239 kts | 357° |
| 2026-04-27 19:11 | -13.50989 | 145.57168 | 10463 ft | 239 kts | 357° |
| 2026-04-27 19:11 | -13.49326 | 145.57080 | 10461 ft | 239 kts | 357° |
| 2026-04-27 19:11 | -13.47665 | 145.56992 | 10461 ft | 239 kts | 357° |
| 2026-04-27 19:11 | -13.46008 | 145.56901 | 10460 ft | 239 kts | 357° |
| 2026-04-27 19:12 | -13.44346 | 145.56814 | 10460 ft | 239 kts | 357° |
| 2026-04-27 19:12 | -13.42690 | 145.56725 | 10462 ft | 239 kts | 357° |
| 2026-04-27 19:12 | -13.41030 | 145.56636 | 10460 ft | 239 kts | 357° |
| 2026-04-27 19:12 | -13.39394 | 145.56548 | 10462 ft | 239 kts | 357° |
| 2026-04-27 19:13 | -13.37732 | 145.56460 | 10460 ft | 239 kts | 357° |
| 2026-04-27 19:13 | -13.36076 | 145.56371 | 10461 ft | 239 kts | 357° |
| 2026-04-27 19:13 | -13.34420 | 145.56283 | 10461 ft | 239 kts | 357° |
| 2026-04-27 19:13 | -13.32761 | 145.56193 | 10462 ft | 238 kts | 357° |
| 2026-04-27 19:14 | -13.31103 | 145.56105 | 10461 ft | 238 kts | 357° |
| 2026-04-27 19:14 | -13.29450 | 145.56017 | 10464 ft | 238 kts | 357° |
| 2026-04-27 19:14 | -13.27794 | 145.55928 | 10461 ft | 238 kts | 357° |
| 2026-04-27 19:14 | -13.26140 | 145.55840 | 10461 ft | 238 kts | 357° |
| 2026-04-27 19:15 | -13.24505 | 145.55753 | 10463 ft | 238 kts | 357° |
| 2026-04-27 19:15 | -13.22854 | 145.55664 | 10462 ft | 238 kts | 357° |
| 2026-04-27 19:15 | -13.21199 | 145.55576 | 10461 ft | 238 kts | 356° |
| 2026-04-27 19:15 | -13.19549 | 145.55487 | 10463 ft | 238 kts | 356° |
| 2026-04-27 19:16 | -13.17895 | 145.55399 | 10457 ft | 238 kts | 356° |
| 2026-04-27 19:16 | -13.16802 | 145.55341 | 10459 ft | 238 kts | 356° |
| 2026-04-27 19:16 | -13.14594 | 145.55223 | 10461 ft | 237 kts | 356° |
| 2026-04-27 19:16 | -13.12948 | 145.55135 | 10458 ft | 237 kts | 356° |
| 2026-04-27 19:17 | -13.11322 | 145.55048 | 10461 ft | 237 kts | 356° |
| 2026-04-27 19:17 | -13.09675 | 145.54961 | 10461 ft | 237 kts | 356° |
| 2026-04-27 19:17 | -13.08025 | 145.54872 | 10463 ft | 237 kts | 356° |
| 2026-04-27 19:17 | -13.06377 | 145.54784 | 10463 ft | 237 kts | 356° |
| 2026-04-27 19:18 | -13.04725 | 145.54697 | 10461 ft | 237 kts | 356° |
| 2026-04-27 19:18 | -13.03077 | 145.54608 | 10460 ft | 237 kts | 356° |
| 2026-04-27 19:18 | -13.01427 | 145.54521 | 10462 ft | 237 kts | 356° |
| 2026-04-27 19:18 | -12.99782 | 145.54433 | 10459 ft | 237 kts | 356° |
| 2026-04-27 19:19 | -12.98133 | 145.54344 | 10461 ft | 237 kts | 356° |
| 2026-04-27 19:19 | -12.96510 | 145.54258 | 10462 ft | 237 kts | 356° |
| 2026-04-27 19:19 | -12.94859 | 145.54171 | 10462 ft | 237 kts | 356° |
| 2026-04-27 19:19 | -12.93212 | 145.54082 | 10463 ft | 237 kts | 355° |
| 2026-04-27 19:20 | -12.91561 | 145.53994 | 10458 ft | 237 kts | 355° |
| 2026-04-27 19:20 | -12.89917 | 145.53907 | 10459 ft | 237 kts | 355° |
| 2026-04-27 19:20 | -12.88269 | 145.53819 | 10459 ft | 237 kts | 355° |
| 2026-04-27 19:20 | -12.86625 | 145.53732 | 10458 ft | 237 kts | 355° |
| 2026-04-27 19:21 | -12.84977 | 145.53643 | 10457 ft | 237 kts | 355° |
| 2026-04-27 19:21 | -12.83334 | 145.53557 | 10459 ft | 237 kts | 355° |
| 2026-04-27 19:21 | -12.81711 | 145.53471 | 10463 ft | 236 kts | 355° |
| 2026-04-27 19:21 | -12.80071 | 145.53382 | 10461 ft | 236 kts | 355° |
| 2026-04-27 19:22 | -12.78426 | 145.53295 | 10459 ft | 237 kts | 355° |
| 2026-04-27 19:22 | -12.76784 | 145.53206 | 10460 ft | 237 kts | 355° |
| 2026-04-27 19:22 | -12.75140 | 145.53120 | 10462 ft | 236 kts | 355° |
| 2026-04-27 19:22 | -12.73504 | 145.53034 | 10460 ft | 236 kts | 354° |
| 2026-04-27 19:23 | -12.71862 | 145.52945 | 10457 ft | 236 kts | 354° |
| 2026-04-27 19:23 | -12.70223 | 145.52857 | 10456 ft | 236 kts | 354° |
| 2026-04-27 19:23 | -12.68603 | 145.52773 | 10456 ft | 236 kts | 354° |
| 2026-04-27 19:23 | -12.66965 | 145.52685 | 10460 ft | 236 kts | 354° |
| 2026-04-27 19:24 | -12.65326 | 145.52600 | 10462 ft | 235 kts | 355° |
| 2026-04-27 19:24 | -12.63695 | 145.52512 | 10461 ft | 235 kts | 354° |
| 2026-04-27 19:24 | -12.62060 | 145.52423 | 10454 ft | 235 kts | 355° |
| 2026-04-27 19:24 | -12.60431 | 145.52339 | 10459 ft | 234 kts | 354° |
| 2026-04-27 19:25 | -12.58800 | 145.52253 | 10453 ft | 234 kts | 353° |
| 2026-04-27 19:25 | -12.57177 | 145.52163 | 10450 ft | 234 kts | 354° |
| 2026-04-27 19:25 | -12.55572 | 145.52078 | 10453 ft | 233 kts | 354° |
| 2026-04-27 19:25 | -12.53951 | 145.51994 | 10458 ft | 234 kts | 353° |
| 2026-04-27 19:26 | -12.52324 | 145.51908 | 10461 ft | 234 kts | 353° |
| 2026-04-27 19:26 | -12.50704 | 145.51822 | 10463 ft | 233 kts | 354° |
| 2026-04-27 19:26 | -12.49081 | 145.51735 | 10467 ft | 233 kts | 354° |
| 2026-04-27 19:26 | -12.47462 | 145.51649 | 10465 ft | 233 kts | 353° |
| 2026-04-27 19:27 | -12.45844 | 145.51563 | 10462 ft | 233 kts | 354° |
| 2026-04-27 19:27 | -12.44229 | 145.51476 | 10464 ft | 232 kts | 354° |
| 2026-04-27 19:27 | -12.42635 | 145.51392 | 10458 ft | 232 kts | 353° |
| 2026-04-27 19:27 | -12.41024 | 145.51307 | 10459 ft | 232 kts | 353° |
| 2026-04-27 19:28 | -12.39410 | 145.51222 | 10456 ft | 232 kts | 353° |
| 2026-04-27 19:28 | -12.37799 | 145.51135 | 10457 ft | 232 kts | 353° |
| 2026-04-27 19:28 | -12.36181 | 145.51050 | 10455 ft | 232 kts | 353° |
| 2026-04-27 19:28 | -12.34569 | 145.50964 | 10451 ft | 232 kts | 353° |
| 2026-04-27 19:29 | -12.32951 | 145.50879 | 10455 ft | 233 kts | 353° |
| 2026-04-27 19:29 | -12.31336 | 145.50793 | 10454 ft | 233 kts | 353° |
| 2026-04-27 19:29 | -12.29721 | 145.50707 | 10457 ft | 232 kts | 353° |
| 2026-04-27 19:29 | -12.28110 | 145.50622 | 10456 ft | 232 kts | 353° |
| 2026-04-27 19:30 | -12.26540 | 145.50539 | 10455 ft | 231 kts | 353° |
| 2026-04-27 19:30 | -12.24935 | 145.50454 | 10456 ft | 232 kts | 353° |
| 2026-04-27 19:30 | -12.23323 | 145.50368 | 10452 ft | 232 kts | 353° |
| 2026-04-27 19:30 | -12.21712 | 145.50283 | 10452 ft | 232 kts | 353° |
| 2026-04-27 19:31 | -12.20098 | 145.50197 | 10453 ft | 232 kts | 353° |
| 2026-04-27 19:31 | -12.18487 | 145.50111 | 10452 ft | 232 kts | 353° |
| 2026-04-27 19:31 | -12.16874 | 145.50027 | 10453 ft | 231 kts | 353° |
| 2026-04-27 19:31 | -12.15270 | 145.49941 | 10452 ft | 231 kts | 353° |
| 2026-04-27 19:32 | -12.13662 | 145.49857 | 10450 ft | 231 kts | 353° |
| 2026-04-27 19:32 | -12.12056 | 145.49771 | 10449 ft | 232 kts | 353° |
| 2026-04-27 19:32 | -12.10466 | 145.49687 | 10450 ft | 231 kts | 353° |
| 2026-04-27 19:32 | -12.08858 | 145.49602 | 10448 ft | 231 kts | 353° |
| 2026-04-27 19:33 | -12.07252 | 145.49517 | 10453 ft | 231 kts | 353° |
| 2026-04-27 19:33 | -12.06192 | 145.49461 | 10450 ft | 231 kts | 352° |
| 2026-04-27 19:33 | -12.04045 | 145.49347 | 10450 ft | 231 kts | 353° |
| 2026-04-27 19:33 | -12.02440 | 145.49262 | 10455 ft | 231 kts | 353° |
| 2026-04-27 19:34 | -12.00833 | 145.49177 | 10461 ft | 231 kts | 353° |
| 2026-04-27 19:34 | -11.99230 | 145.49092 | 10452 ft | 231 kts | 353° |
| 2026-04-27 19:34 | -11.97645 | 145.49009 | 10454 ft | 231 kts | 352° |
| 2026-04-27 19:34 | -11.96044 | 145.48924 | 10456 ft | 231 kts | 353° |
| 2026-04-27 19:35 | -11.94437 | 145.48839 | 10453 ft | 231 kts | 353° |
| 2026-04-27 19:35 | -11.92831 | 145.48754 | 10453 ft | 231 kts | 353° |
| 2026-04-27 19:35 | -11.91224 | 145.48668 | 10450 ft | 231 kts | 353° |
| 2026-04-27 19:35 | -11.89620 | 145.48585 | 10451 ft | 231 kts | 352° |
| 2026-04-27 19:36 | -11.88012 | 145.48499 | 10454 ft | 231 kts | 352° |
| 2026-04-27 19:36 | -11.86407 | 145.48413 | 10454 ft | 231 kts | 353° |
| 2026-04-27 19:36 | -11.84797 | 145.48330 | 10455 ft | 231 kts | 352° |
| 2026-04-27 19:36 | -11.83193 | 145.48244 | 10456 ft | 231 kts | 352° |
| 2026-04-27 19:37 | -11.81605 | 145.48160 | 10452 ft | 231 kts | 352° |
| 2026-04-27 19:37 | -11.79996 | 145.48075 | 10450 ft | 231 kts | 352° |
| 2026-04-27 19:37 | -11.78392 | 145.47991 | 10451 ft | 231 kts | 352° |
| 2026-04-27 19:37 | -11.76784 | 145.47905 | 10449 ft | 232 kts | 352° |
| 2026-04-27 19:38 | -11.75175 | 145.47820 | 10452 ft | 232 kts | 352° |
| 2026-04-27 19:38 | -11.73568 | 145.47737 | 10456 ft | 231 kts | 352° |
| 2026-04-27 19:38 | -11.71958 | 145.47650 | 10448 ft | 232 kts | 352° |
| 2026-04-27 19:38 | -11.70346 | 145.47566 | 10452 ft | 232 kts | 352° |
| 2026-04-27 19:39 | -11.68740 | 145.47481 | 10454 ft | 231 kts | 352° |
| 2026-04-27 19:39 | -11.67131 | 145.47396 | 10453 ft | 231 kts | 352° |
| 2026-04-27 19:39 | -11.65564 | 145.47315 | 10453 ft | 219 kts | 352° |
| 2026-04-27 19:39 | -11.64145 | 145.47245 | 10442 ft | 190 kts | 351° |
| 2026-04-27 19:40 | -11.62919 | 145.47180 | 10423 ft | 162 kts | 350° |
| 2026-04-27 19:40 | -11.61884 | 145.47124 | 10402 ft | 136 kts | 349° |
| 2026-04-27 19:40 | -11.61021 | 145.47079 | 10371 ft | 112 kts | 347° |
| 2026-04-27 19:40 | -11.60295 | 145.47039 | 10181 ft | 101 kts | 346° |
| 2026-04-27 19:41 | -11.59606 | 145.46995 | 9909 ft | 96 kts | 345° |
| 2026-04-27 19:41 | -11.58935 | 145.46953 | 9456 ft | 101 kts | 346° |
| 2026-04-27 19:41 | -11.58256 | 145.46914 | 9091 ft | 97 kts | 348° |
| 2026-04-27 19:41 | -11.57564 | 145.46885 | 8665 ft | 99 kts | 349° |
| 2026-04-27 19:42 | -11.56881 | 145.46854 | 8255 ft | 100 kts | 348° |
| 2026-04-27 19:42 | -11.56191 | 145.46820 | 7867 ft | 99 kts | 349° |
| 2026-04-27 19:42 | -11.55500 | 145.46782 | 7480 ft | 99 kts | 351° |
| 2026-04-27 19:42 | -11.54812 | 145.46742 | 7109 ft | 99 kts | 353° |
| 2026-04-27 19:43 | -11.54116 | 145.46703 | 6743 ft | 99 kts | 355° |
| 2026-04-27 19:43 | -11.53422 | 145.46669 | 6369 ft | 101 kts | 356° |
| 2026-04-27 19:43 | -11.52726 | 145.46637 | 5987 ft | 101 kts | 358° |
| 2026-04-27 19:43 | -11.52020 | 145.46601 | 5594 ft | 102 kts | 359° |
| 2026-04-27 19:44 | -11.51322 | 145.46563 | 5215 ft | 103 kts | 360° |
| 2026-04-27 19:44 | -11.50610 | 145.46524 | 4834 ft | 103 kts | 0° |
| 2026-04-27 19:44 | -11.49883 | 145.46486 | 4452 ft | 103 kts | 2° |
| 2026-04-27 19:44 | -11.49160 | 145.46448 | 4048 ft | 106 kts | 3° |
| 2026-04-27 19:45 | -11.48448 | 145.46412 | 3740 ft | 102 kts | 3° |
| 2026-04-27 19:45 | -11.47743 | 145.46375 | 3407 ft | 99 kts | 6° |
| 2026-04-27 19:45 | -11.47051 | 145.46336 | 3078 ft | 100 kts | 6° |
| 2026-04-27 19:45 | -11.46365 | 145.46303 | 2708 ft | 102 kts | 6° |
| 2026-04-27 19:46 | -11.45658 | 145.46278 | 2354 ft | 101 kts | 3° |
| 2026-04-27 19:46 | -11.44951 | 145.46226 | 1955 ft | 107 kts | 4° |
| 2026-04-27 19:46 | -11.44225 | 145.46183 | 1639 ft | 103 kts | 5° |
| 2026-04-27 19:46 | -11.43511 | 145.46144 | 1321 ft | 102 kts | 6° |
| 2026-04-27 19:47 | -11.42808 | 145.46116 | 1005 ft | 98 kts | 5° |
| 2026-04-27 19:47 | -11.42114 | 145.46080 | 664 ft | 96 kts | 4° |
| 2026-04-27 19:47 | -11.41402 | 145.46029 | 280 ft | 102 kts | 8° |
| 2026-04-27 19:47 | -11.40768 | 145.46027 | -2 ft | 48 kts | 30° |
| 2026-04-27 19:48 | -11.40741 | 145.46047 | 0 ft | 0 kts | 48° |